AFR026 KLAX-NTAA
Flight info
| Callsign | AFR026 |
|---|---|
| Flight time | 8h 8m |
| Altitude | 38000 |
| Route | ZILLI5 FICKY DCT HILCO G575 CINTO/N0484F400 G575 ORARE DCT ASOKI ASOKI4T |
| Aircraft | A359/H-SDE2E3GHIJ3J4J5LM1ORWXY/LB1D1 |
Departure
| Time | 2026-04-24 06:49 |
|---|---|
| Airport | Los Angeles International Airport (KLAX) |
Arrival
| Time | 2026-04-24 14:57 |
|---|---|
| Airport | Fa'a'ā International Airport (NTAA) |
| Time | Latitude | Longitude | Altitude | Speed | Heading |
|---|---|---|---|---|---|
| 2026-04-24 06:04 | 33.94279 | -118.41563 | 102 ft | 0 kts | 83° |
| 2026-04-24 06:29 | 33.94276 | -118.41591 | 99 ft | 4 kts | 83° |
| 2026-04-24 06:29 | 33.94274 | -118.41622 | 98 ft | 3 kts | 84° |
| 2026-04-24 06:29 | 33.94269 | -118.41647 | 99 ft | 4 kts | 45° |
| 2026-04-24 06:30 | 33.94247 | -118.41659 | 98 ft | 4 kts | 0° |
| 2026-04-24 06:30 | 33.94233 | -118.41658 | 98 ft | 0 kts | 353° |
| 2026-04-24 06:39 | 33.94237 | -118.41659 | 99 ft | 2 kts | 353° |
| 2026-04-24 06:40 | 33.94276 | -118.41664 | 101 ft | 10 kts | 353° |
| 2026-04-24 06:40 | 33.94349 | -118.41701 | 100 ft | 11 kts | 299° |
| 2026-04-24 06:40 | 33.94323 | -118.41765 | 100 ft | 9 kts | 197° |
| 2026-04-24 06:40 | 33.94249 | -118.41761 | 100 ft | 13 kts | 172° |
| 2026-04-24 06:41 | 33.94143 | -118.41744 | 100 ft | 17 kts | 172° |
| 2026-04-24 06:41 | 33.94013 | -118.41725 | 101 ft | 20 kts | 173° |
| 2026-04-24 06:41 | 33.93872 | -118.41705 | 101 ft | 20 kts | 173° |
| 2026-04-24 06:41 | 33.93757 | -118.41687 | 102 ft | 13 kts | 171° |
| 2026-04-24 06:42 | 33.93715 | -118.41611 | 105 ft | 12 kts | 91° |
| 2026-04-24 06:42 | 33.93726 | -118.41498 | 104 ft | 15 kts | 83° |
| 2026-04-24 06:42 | 33.93740 | -118.41361 | 102 ft | 18 kts | 83° |
| 2026-04-24 06:42 | 33.93757 | -118.41189 | 100 ft | 23 kts | 83° |
| 2026-04-24 06:43 | 33.93779 | -118.40976 | 100 ft | 28 kts | 83° |
| 2026-04-24 06:43 | 33.93803 | -118.40739 | 102 ft | 28 kts | 83° |
| 2026-04-24 06:43 | 33.93827 | -118.40505 | 102 ft | 28 kts | 83° |
| 2026-04-24 06:43 | 33.93850 | -118.40276 | 102 ft | 27 kts | 83° |
| 2026-04-24 06:44 | 33.93873 | -118.40052 | 104 ft | 26 kts | 83° |
| 2026-04-24 06:44 | 33.93896 | -118.39834 | 105 ft | 26 kts | 83° |
| 2026-04-24 06:44 | 33.93918 | -118.39617 | 101 ft | 26 kts | 83° |
| 2026-04-24 06:44 | 33.93940 | -118.39404 | 103 ft | 26 kts | 83° |
| 2026-04-24 06:45 | 33.93961 | -118.39189 | 101 ft | 26 kts | 83° |
| 2026-04-24 06:45 | 33.93983 | -118.38981 | 102 ft | 25 kts | 83° |
| 2026-04-24 06:45 | 33.94004 | -118.38779 | 101 ft | 24 kts | 83° |
| 2026-04-24 06:45 | 33.94024 | -118.38585 | 101 ft | 23 kts | 83° |
| 2026-04-24 06:46 | 33.94043 | -118.38399 | 105 ft | 22 kts | 83° |
| 2026-04-24 06:46 | 33.94061 | -118.38216 | 101 ft | 22 kts | 83° |
| 2026-04-24 06:46 | 33.94074 | -118.38095 | 100 ft | 1 kts | 83° |
| 2026-04-24 06:46 | 33.94074 | -118.38093 | 100 ft | 1 kts | 83° |
| 2026-04-24 06:47 | 33.94077 | -118.38062 | 100 ft | 6 kts | 83° |
| 2026-04-24 06:47 | 33.94066 | -118.38017 | 102 ft | 5 kts | 135° |
| 2026-04-24 06:47 | 33.94031 | -118.38005 | 102 ft | 6 kts | 169° |
| 2026-04-24 06:47 | 33.93995 | -118.38021 | 103 ft | 6 kts | 226° |
| 2026-04-24 06:48 | 33.93978 | -118.38090 | 101 ft | 16 kts | 262° |
| 2026-04-24 06:48 | 33.93937 | -118.38479 | 105 ft | 78 kts | 263° |
| 2026-04-24 06:48 | 33.93847 | -118.39368 | 101 ft | 134 kts | 263° |
| 2026-04-24 06:48 | 33.93714 | -118.40672 | 157 ft | 175 kts | 262° |
| 2026-04-24 06:49 | 33.93569 | -118.42119 | 793 ft | 173 kts | 262° |
| 2026-04-24 06:49 | 33.93424 | -118.43538 | 1466 ft | 174 kts | 263° |
| 2026-04-24 06:49 | 33.93255 | -118.45058 | 1718 ft | 194 kts | 260° |
| 2026-04-24 06:49 | 33.92701 | -118.46629 | 1899 ft | 216 kts | 236° |
| 2026-04-24 06:50 | 33.91750 | -118.48151 | 2084 ft | 238 kts | 231° |
| 2026-04-24 06:50 | 33.90670 | -118.49757 | 2350 ft | 254 kts | 231° |
| 2026-04-24 06:50 | 33.89514 | -118.51396 | 2842 ft | 259 kts | 230° |
| 2026-04-24 06:50 | 33.88333 | -118.53036 | 3453 ft | 259 kts | 230° |
| 2026-04-24 06:51 | 33.87153 | -118.54690 | 4016 ft | 262 kts | 230° |
| 2026-04-24 06:51 | 33.85939 | -118.56297 | 4567 ft | 264 kts | 223° |
| 2026-04-24 06:51 | 33.84487 | -118.57665 | 5123 ft | 267 kts | 216° |
| 2026-04-24 06:51 | 33.82952 | -118.58941 | 5635 ft | 270 kts | 215° |
| 2026-04-24 06:52 | 33.81395 | -118.60223 | 6173 ft | 272 kts | 214° |
| 2026-04-24 06:52 | 33.79826 | -118.61518 | 6696 ft | 274 kts | 214° |
| 2026-04-24 06:52 | 33.78251 | -118.62822 | 7246 ft | 276 kts | 215° |
| 2026-04-24 06:52 | 33.76669 | -118.64135 | 7774 ft | 277 kts | 216° |
| 2026-04-24 06:53 | 33.75042 | -118.65381 | 8333 ft | 279 kts | 208° |
| 2026-04-24 06:53 | 33.73183 | -118.66062 | 8883 ft | 282 kts | 191° |
| 2026-04-24 06:53 | 33.71230 | -118.66386 | 9419 ft | 285 kts | 189° |
| 2026-04-24 06:53 | 33.69255 | -118.66668 | 9932 ft | 287 kts | 190° |
| 2026-04-24 06:54 | 33.67253 | -118.66968 | 10264 ft | 296 kts | 191° |
| 2026-04-24 06:54 | 33.65165 | -118.67290 | 10459 ft | 309 kts | 191° |
| 2026-04-24 06:54 | 33.62987 | -118.67626 | 10652 ft | 322 kts | 191° |
| 2026-04-24 06:54 | 33.60722 | -118.67976 | 10839 ft | 334 kts | 191° |
| 2026-04-24 06:55 | 33.58374 | -118.68341 | 11031 ft | 346 kts | 191° |
| 2026-04-24 06:55 | 33.55949 | -118.68717 | 11208 ft | 357 kts | 191° |
| 2026-04-24 06:55 | 33.53455 | -118.69104 | 11469 ft | 365 kts | 191° |
| 2026-04-24 06:55 | 33.50926 | -118.69496 | 11843 ft | 368 kts | 191° |
| 2026-04-24 06:56 | 33.48376 | -118.69891 | 12254 ft | 371 kts | 191° |
| 2026-04-24 06:56 | 33.45811 | -118.70309 | 12647 ft | 372 kts | 193° |
| 2026-04-24 06:56 | 33.43344 | -118.71178 | 13021 ft | 369 kts | 208° |
| 2026-04-24 06:56 | 33.41235 | -118.72877 | 13422 ft | 365 kts | 225° |
| 2026-04-24 06:57 | 33.39417 | -118.75007 | 13824 ft | 366 kts | 228° |
| 2026-04-24 06:57 | 33.37643 | -118.77203 | 14187 ft | 368 kts | 228° |
| 2026-04-24 06:57 | 33.35862 | -118.79405 | 14573 ft | 369 kts | 228° |
| 2026-04-24 06:57 | 33.34069 | -118.81608 | 14950 ft | 370 kts | 228° |
| 2026-04-24 06:58 | 33.32270 | -118.83811 | 15340 ft | 371 kts | 228° |
| 2026-04-24 06:58 | 33.30463 | -118.86019 | 15735 ft | 372 kts | 228° |
| 2026-04-24 06:58 | 33.28652 | -118.88228 | 16127 ft | 373 kts | 228° |
| 2026-04-24 06:58 | 33.26832 | -118.90445 | 16519 ft | 374 kts | 228° |
| 2026-04-24 06:59 | 33.25005 | -118.92668 | 16910 ft | 375 kts | 228° |
| 2026-04-24 06:59 | 33.23171 | -118.94898 | 17295 ft | 376 kts | 228° |
| 2026-04-24 06:59 | 33.21334 | -118.97131 | 17684 ft | 378 kts | 228° |
| 2026-04-24 06:59 | 33.19494 | -118.99379 | 18063 ft | 379 kts | 228° |
| 2026-04-24 07:00 | 33.17653 | -119.01612 | 18418 ft | 380 kts | 228° |
| 2026-04-24 07:00 | 33.15791 | -119.03869 | 18737 ft | 381 kts | 228° |
| 2026-04-24 07:00 | 33.13926 | -119.06127 | 19047 ft | 383 kts | 228° |
| 2026-04-24 07:00 | 33.12053 | -119.08395 | 19328 ft | 385 kts | 228° |
| 2026-04-24 07:01 | 33.10173 | -119.10671 | 19641 ft | 386 kts | 228° |
| 2026-04-24 07:01 | 33.08284 | -119.12957 | 19930 ft | 387 kts | 228° |
| 2026-04-24 07:01 | 33.06392 | -119.15246 | 20228 ft | 389 kts | 228° |
| 2026-04-24 07:01 | 33.04488 | -119.17547 | 20524 ft | 390 kts | 228° |
| 2026-04-24 07:02 | 33.02576 | -119.19856 | 20811 ft | 391 kts | 228° |
| 2026-04-24 07:02 | 33.00689 | -119.22135 | 21090 ft | 393 kts | 228° |
| 2026-04-24 07:02 | 32.98767 | -119.24454 | 21375 ft | 394 kts | 228° |
| 2026-04-24 07:02 | 32.96838 | -119.26780 | 21693 ft | 395 kts | 228° |
| 2026-04-24 07:03 | 32.94902 | -119.29112 | 21966 ft | 396 kts | 228° |
| 2026-04-24 07:03 | 32.92961 | -119.31449 | 22227 ft | 398 kts | 228° |
| 2026-04-24 07:03 | 32.91012 | -119.33795 | 22499 ft | 399 kts | 228° |
| 2026-04-24 07:03 | 32.89056 | -119.36146 | 22768 ft | 400 kts | 228° |
| 2026-04-24 07:04 | 32.87093 | -119.38505 | 23029 ft | 402 kts | 228° |
| 2026-04-24 07:04 | 32.85123 | -119.40871 | 23285 ft | 403 kts | 228° |
| 2026-04-24 07:04 | 32.83148 | -119.43241 | 23548 ft | 405 kts | 229° |
| 2026-04-24 07:04 | 32.81162 | -119.45623 | 23768 ft | 406 kts | 229° |
| 2026-04-24 07:05 | 32.79175 | -119.48005 | 23996 ft | 407 kts | 229° |
| 2026-04-24 07:05 | 32.77179 | -119.50395 | 24187 ft | 408 kts | 229° |
| 2026-04-24 07:05 | 32.75177 | -119.52791 | 24393 ft | 409 kts | 229° |
| 2026-04-24 07:05 | 32.73170 | -119.55192 | 24616 ft | 410 kts | 229° |
| 2026-04-24 07:06 | 32.71159 | -119.57596 | 24843 ft | 410 kts | 229° |
| 2026-04-24 07:06 | 32.69146 | -119.60000 | 25056 ft | 411 kts | 229° |
| 2026-04-24 07:06 | 32.67128 | -119.62408 | 25276 ft | 412 kts | 229° |
| 2026-04-24 07:06 | 32.65104 | -119.64822 | 25490 ft | 413 kts | 229° |
| 2026-04-24 07:07 | 32.63078 | -119.67238 | 25713 ft | 414 kts | 229° |
| 2026-04-24 07:07 | 32.61730 | -119.68843 | 25872 ft | 414 kts | 229° |
| 2026-04-24 07:07 | 32.57663 | -119.73692 | 26317 ft | 416 kts | 229° |
| 2026-04-24 07:08 | 32.55619 | -119.76127 | 26556 ft | 417 kts | 229° |
| 2026-04-24 07:08 | 32.53573 | -119.78560 | 26776 ft | 417 kts | 229° |
| 2026-04-24 07:08 | 32.51520 | -119.80999 | 26999 ft | 418 kts | 230° |
| 2026-04-24 07:08 | 32.49465 | -119.83441 | 27242 ft | 419 kts | 229° |
| 2026-04-24 07:09 | 32.47404 | -119.85887 | 27489 ft | 419 kts | 229° |
| 2026-04-24 07:09 | 32.45341 | -119.88335 | 27718 ft | 420 kts | 230° |
| 2026-04-24 07:09 | 32.43276 | -119.90785 | 27922 ft | 421 kts | 229° |
| 2026-04-24 07:09 | 32.41205 | -119.93239 | 28181 ft | 421 kts | 230° |
| 2026-04-24 07:10 | 32.39128 | -119.95698 | 28423 ft | 422 kts | 230° |
| 2026-04-24 07:10 | 32.37050 | -119.98158 | 28653 ft | 423 kts | 230° |
| 2026-04-24 07:10 | 32.34966 | -120.00622 | 28887 ft | 424 kts | 230° |
| 2026-04-24 07:10 | 32.32877 | -120.03091 | 29112 ft | 425 kts | 230° |
| 2026-04-24 07:11 | 32.30779 | -120.05569 | 29356 ft | 426 kts | 230° |
| 2026-04-24 07:11 | 32.28677 | -120.08050 | 29576 ft | 427 kts | 230° |
| 2026-04-24 07:11 | 32.26574 | -120.10530 | 29807 ft | 428 kts | 230° |
| 2026-04-24 07:11 | 32.24460 | -120.13022 | 30036 ft | 429 kts | 230° |
| 2026-04-24 07:12 | 32.22343 | -120.15515 | 30240 ft | 430 kts | 230° |
| 2026-04-24 07:12 | 32.20221 | -120.18012 | 30449 ft | 431 kts | 230° |
| 2026-04-24 07:12 | 32.18093 | -120.20516 | 30652 ft | 432 kts | 230° |
| 2026-04-24 07:12 | 32.15963 | -120.23019 | 30877 ft | 433 kts | 230° |
| 2026-04-24 07:13 | 32.13826 | -120.25528 | 31086 ft | 433 kts | 230° |
| 2026-04-24 07:13 | 32.11689 | -120.28037 | 31293 ft | 434 kts | 230° |
| 2026-04-24 07:13 | 32.09544 | -120.30552 | 31505 ft | 435 kts | 230° |
| 2026-04-24 07:13 | 32.07402 | -120.33063 | 31752 ft | 434 kts | 230° |
| 2026-04-24 07:14 | 32.05303 | -120.35544 | 32067 ft | 431 kts | 231° |
| 2026-04-24 07:14 | 32.03378 | -120.38214 | 32372 ft | 425 kts | 238° |
| 2026-04-24 07:14 | 32.01793 | -120.41125 | 32666 ft | 420 kts | 243° |
| 2026-04-24 07:14 | 32.00381 | -120.44129 | 32937 ft | 419 kts | 244° |
| 2026-04-24 07:15 | 31.98995 | -120.47137 | 33224 ft | 417 kts | 244° |
| 2026-04-24 07:15 | 31.97612 | -120.50132 | 33512 ft | 415 kts | 244° |
| 2026-04-24 07:15 | 31.96232 | -120.53113 | 33835 ft | 413 kts | 244° |
| 2026-04-24 07:15 | 31.94858 | -120.56074 | 34124 ft | 412 kts | 244° |
| 2026-04-24 07:16 | 31.93485 | -120.59026 | 34374 ft | 410 kts | 244° |
| 2026-04-24 07:16 | 31.92115 | -120.61969 | 34566 ft | 410 kts | 244° |
| 2026-04-24 07:16 | 31.90745 | -120.64908 | 34788 ft | 409 kts | 244° |
| 2026-04-24 07:16 | 31.89378 | -120.67838 | 34992 ft | 408 kts | 244° |
| 2026-04-24 07:17 | 31.88012 | -120.70763 | 35201 ft | 408 kts | 244° |
| 2026-04-24 07:17 | 31.86648 | -120.73684 | 35409 ft | 407 kts | 244° |
| 2026-04-24 07:17 | 31.85287 | -120.76594 | 35617 ft | 406 kts | 244° |
| 2026-04-24 07:17 | 31.83925 | -120.79502 | 35819 ft | 405 kts | 243° |
| 2026-04-24 07:18 | 31.82567 | -120.82401 | 36023 ft | 405 kts | 243° |
| 2026-04-24 07:18 | 31.81209 | -120.85298 | 36215 ft | 404 kts | 243° |
| 2026-04-24 07:18 | 31.79853 | -120.88189 | 36412 ft | 404 kts | 243° |
| 2026-04-24 07:18 | 31.78497 | -120.91076 | 36593 ft | 403 kts | 243° |
| 2026-04-24 07:19 | 31.77145 | -120.93954 | 36791 ft | 402 kts | 243° |
| 2026-04-24 07:19 | 31.75793 | -120.96830 | 36947 ft | 402 kts | 243° |
| 2026-04-24 07:19 | 31.74438 | -120.99709 | 37085 ft | 402 kts | 243° |
| 2026-04-24 07:19 | 31.73084 | -121.02583 | 37242 ft | 402 kts | 243° |
| 2026-04-24 07:20 | 31.71732 | -121.05451 | 37415 ft | 401 kts | 243° |
| 2026-04-24 07:20 | 31.70382 | -121.08313 | 37589 ft | 400 kts | 243° |
| 2026-04-24 07:20 | 31.69033 | -121.11170 | 37739 ft | 400 kts | 243° |
| 2026-04-24 07:20 | 31.67685 | -121.14024 | 37885 ft | 399 kts | 243° |
| 2026-04-24 07:21 | 31.66338 | -121.16872 | 38021 ft | 399 kts | 243° |
| 2026-04-24 07:21 | 31.64990 | -121.19722 | 38101 ft | 400 kts | 243° |
| 2026-04-24 07:21 | 31.62273 | -121.25460 | 38104 ft | 404 kts | 243° |
| 2026-04-24 07:22 | 31.59532 | -121.31238 | 38080 ft | 405 kts | 243° |
| 2026-04-24 07:22 | 31.56598 | -121.36830 | 38111 ft | 407 kts | 235° |
| 2026-04-24 07:23 | 31.52509 | -121.41534 | 38116 ft | 415 kts | 221° |
| 2026-04-24 07:23 | 31.47702 | -121.45271 | 38115 ft | 419 kts | 218° |
| 2026-04-24 07:24 | 31.42749 | -121.48877 | 38113 ft | 420 kts | 218° |
| 2026-04-24 07:24 | 31.37793 | -121.52485 | 38118 ft | 419 kts | 218° |
| 2026-04-24 07:25 | 31.32852 | -121.56115 | 38121 ft | 419 kts | 218° |
| 2026-04-24 07:25 | 31.27918 | -121.59752 | 38091 ft | 419 kts | 218° |
| 2026-04-24 07:26 | 31.22988 | -121.63384 | 38122 ft | 419 kts | 218° |
| 2026-04-24 07:26 | 31.18062 | -121.67007 | 38121 ft | 419 kts | 218° |
| 2026-04-24 07:27 | 31.13128 | -121.70630 | 38122 ft | 419 kts | 218° |
| 2026-04-24 07:27 | 31.08195 | -121.74248 | 38124 ft | 419 kts | 218° |
| 2026-04-24 07:28 | 31.03259 | -121.77864 | 38124 ft | 419 kts | 218° |
| 2026-04-24 07:28 | 30.98327 | -121.81473 | 38097 ft | 419 kts | 218° |
| 2026-04-24 07:29 | 30.93391 | -121.85079 | 38127 ft | 419 kts | 218° |
| 2026-04-24 07:29 | 30.88456 | -121.88680 | 38132 ft | 419 kts | 218° |
| 2026-04-24 07:30 | 30.83518 | -121.92278 | 38135 ft | 419 kts | 218° |
| 2026-04-24 07:30 | 30.78582 | -121.95872 | 38135 ft | 419 kts | 218° |
| 2026-04-24 07:31 | 30.73645 | -121.99462 | 38138 ft | 419 kts | 218° |
| 2026-04-24 07:31 | 30.68702 | -122.03052 | 38137 ft | 419 kts | 218° |
| 2026-04-24 07:32 | 30.63762 | -122.06634 | 38135 ft | 418 kts | 218° |
| 2026-04-24 07:32 | 30.58821 | -122.10214 | 38138 ft | 419 kts | 218° |
| 2026-04-24 07:33 | 30.53879 | -122.13791 | 38138 ft | 419 kts | 218° |
| 2026-04-24 07:33 | 30.48965 | -122.17342 | 38141 ft | 419 kts | 217° |
| 2026-04-24 07:34 | 30.44017 | -122.20913 | 38139 ft | 419 kts | 217° |
| 2026-04-24 07:34 | 30.39067 | -122.24481 | 38139 ft | 419 kts | 217° |
| 2026-04-24 07:35 | 30.34118 | -122.28046 | 38143 ft | 419 kts | 217° |
| 2026-04-24 07:35 | 30.29169 | -122.31604 | 38150 ft | 419 kts | 217° |
| 2026-04-24 07:36 | 30.24220 | -122.35159 | 38137 ft | 419 kts | 217° |
| 2026-04-24 07:36 | 30.19266 | -122.38714 | 38148 ft | 419 kts | 217° |
| 2026-04-24 07:37 | 30.14309 | -122.42266 | 38141 ft | 419 kts | 217° |
| 2026-04-24 07:37 | 30.09352 | -122.45814 | 38138 ft | 419 kts | 217° |
| 2026-04-24 07:38 | 30.04394 | -122.49358 | 38145 ft | 419 kts | 217° |
| 2026-04-24 07:38 | 29.99439 | -122.52897 | 38145 ft | 419 kts | 217° |
| 2026-04-24 07:39 | 29.94512 | -122.56480 | 38158 ft | 418 kts | 218° |
| 2026-04-24 07:39 | 29.89610 | -122.60090 | 38145 ft | 418 kts | 218° |
| 2026-04-24 07:40 | 29.84732 | -122.63672 | 38148 ft | 419 kts | 218° |
| 2026-04-24 07:40 | 29.79814 | -122.67268 | 38152 ft | 419 kts | 218° |
| 2026-04-24 07:41 | 29.74891 | -122.70859 | 38147 ft | 420 kts | 218° |
| 2026-04-24 07:41 | 29.69958 | -122.74452 | 38155 ft | 420 kts | 218° |
| 2026-04-24 07:42 | 29.65023 | -122.78044 | 38153 ft | 420 kts | 218° |
| 2026-04-24 07:42 | 29.60088 | -122.81630 | 38152 ft | 420 kts | 218° |
| 2026-04-24 07:43 | 29.55151 | -122.85215 | 38155 ft | 420 kts | 218° |
| 2026-04-24 07:43 | 29.50218 | -122.88793 | 38155 ft | 419 kts | 218° |
| 2026-04-24 07:44 | 29.45282 | -122.92368 | 38160 ft | 420 kts | 218° |
| 2026-04-24 07:44 | 29.40338 | -122.95946 | 38156 ft | 420 kts | 218° |
| 2026-04-24 07:45 | 29.35392 | -122.99520 | 38164 ft | 420 kts | 218° |
| 2026-04-24 07:45 | 29.30443 | -123.03093 | 38169 ft | 420 kts | 218° |
| 2026-04-24 07:46 | 29.25494 | -123.06661 | 38153 ft | 420 kts | 218° |
| 2026-04-24 07:46 | 29.20542 | -123.10227 | 38161 ft | 420 kts | 218° |
| 2026-04-24 07:47 | 29.15593 | -123.13788 | 38149 ft | 420 kts | 218° |
| 2026-04-24 07:47 | 29.10640 | -123.17346 | 38159 ft | 420 kts | 218° |
| 2026-04-24 07:48 | 29.05688 | -123.20900 | 38164 ft | 420 kts | 218° |
| 2026-04-24 07:48 | 29.00766 | -123.24429 | 38165 ft | 420 kts | 218° |
| 2026-04-24 07:49 | 28.95814 | -123.27975 | 38164 ft | 420 kts | 218° |
| 2026-04-24 07:49 | 28.90865 | -123.31514 | 38167 ft | 420 kts | 218° |
| 2026-04-24 07:50 | 28.85914 | -123.35052 | 38165 ft | 420 kts | 217° |
| 2026-04-24 07:50 | 28.80956 | -123.38589 | 38164 ft | 420 kts | 217° |
| 2026-04-24 07:51 | 28.76001 | -123.42122 | 38164 ft | 420 kts | 217° |
| 2026-04-24 07:51 | 28.71048 | -123.45648 | 38164 ft | 420 kts | 217° |
| 2026-04-24 07:52 | 28.66086 | -123.49177 | 38165 ft | 420 kts | 217° |
| 2026-04-24 07:52 | 28.61131 | -123.52697 | 38166 ft | 420 kts | 217° |
| 2026-04-24 07:53 | 28.56172 | -123.56216 | 38137 ft | 420 kts | 217° |
| 2026-04-24 07:53 | 28.51212 | -123.59731 | 38164 ft | 420 kts | 217° |
| 2026-04-24 07:54 | 28.46252 | -123.63243 | 38162 ft | 420 kts | 217° |
| 2026-04-24 07:54 | 28.42131 | -123.66157 | 38163 ft | 420 kts | 217° |
| 2026-04-24 07:55 | 28.37176 | -123.69658 | 38164 ft | 420 kts | 217° |
| 2026-04-24 07:55 | 28.32216 | -123.73159 | 38167 ft | 420 kts | 217° |
| 2026-04-24 07:56 | 28.27257 | -123.76655 | 38160 ft | 420 kts | 217° |
| 2026-04-24 07:56 | 28.22292 | -123.80151 | 38165 ft | 420 kts | 217° |
| 2026-04-24 07:57 | 28.17325 | -123.83645 | 38165 ft | 420 kts | 217° |
| 2026-04-24 07:57 | 28.12359 | -123.87134 | 38165 ft | 420 kts | 217° |
| 2026-04-24 07:58 | 28.07391 | -123.90621 | 38165 ft | 420 kts | 217° |
| 2026-04-24 07:58 | 28.02423 | -123.94103 | 38165 ft | 420 kts | 217° |
| 2026-04-24 07:59 | 27.97455 | -123.97582 | 38165 ft | 420 kts | 217° |
| 2026-04-24 07:59 | 27.92484 | -124.01061 | 38162 ft | 420 kts | 217° |
| 2026-04-24 08:00 | 27.87520 | -124.04529 | 38168 ft | 419 kts | 217° |
| 2026-04-24 08:00 | 27.82559 | -124.07992 | 38167 ft | 419 kts | 217° |
| 2026-04-24 08:01 | 27.77594 | -124.11453 | 38168 ft | 419 kts | 217° |
| 2026-04-24 08:01 | 27.72630 | -124.14911 | 38168 ft | 419 kts | 217° |
| 2026-04-24 08:02 | 27.67695 | -124.18345 | 38167 ft | 419 kts | 217° |
| 2026-04-24 08:02 | 27.62729 | -124.21796 | 38150 ft | 419 kts | 217° |
| 2026-04-24 08:03 | 27.57751 | -124.25253 | 38164 ft | 420 kts | 217° |
| 2026-04-24 08:03 | 27.52769 | -124.28708 | 38171 ft | 421 kts | 217° |
| 2026-04-24 08:04 | 27.47787 | -124.32158 | 38167 ft | 421 kts | 217° |
| 2026-04-24 08:04 | 27.42798 | -124.35610 | 38171 ft | 421 kts | 217° |
| 2026-04-24 08:05 | 27.37810 | -124.39058 | 38165 ft | 421 kts | 217° |
| 2026-04-24 08:05 | 27.32825 | -124.42501 | 38150 ft | 421 kts | 217° |
| 2026-04-24 08:06 | 27.27829 | -124.45947 | 38170 ft | 421 kts | 217° |
| 2026-04-24 08:06 | 27.22831 | -124.49391 | 38170 ft | 422 kts | 217° |
| 2026-04-24 08:07 | 27.17832 | -124.52832 | 38173 ft | 421 kts | 217° |
| 2026-04-24 08:07 | 27.12830 | -124.56271 | 38172 ft | 421 kts | 217° |
| 2026-04-24 08:08 | 27.07829 | -124.59706 | 38170 ft | 421 kts | 217° |
| 2026-04-24 08:09 | 27.00324 | -124.64853 | 38163 ft | 422 kts | 216° |
| 2026-04-24 08:09 | 26.95315 | -124.68285 | 38167 ft | 422 kts | 216° |
| 2026-04-24 08:10 | 26.90304 | -124.71714 | 38169 ft | 422 kts | 216° |
| 2026-04-24 08:10 | 26.85295 | -124.75138 | 38170 ft | 422 kts | 216° |
| 2026-04-24 08:11 | 26.80312 | -124.78541 | 38165 ft | 422 kts | 216° |
| 2026-04-24 08:11 | 26.75293 | -124.81965 | 38167 ft | 423 kts | 216° |
| 2026-04-24 08:12 | 26.70270 | -124.85387 | 38162 ft | 423 kts | 216° |
| 2026-04-24 08:12 | 26.65243 | -124.88810 | 38170 ft | 423 kts | 216° |
| 2026-04-24 08:13 | 26.60208 | -124.92234 | 38169 ft | 424 kts | 216° |
| 2026-04-24 08:13 | 26.55173 | -124.95654 | 38170 ft | 423 kts | 216° |
| 2026-04-24 08:14 | 26.50141 | -124.99069 | 38170 ft | 424 kts | 216° |
| 2026-04-24 08:14 | 26.45099 | -125.02487 | 38170 ft | 424 kts | 216° |
| 2026-04-24 08:15 | 26.40051 | -125.05906 | 38146 ft | 424 kts | 216° |
| 2026-04-24 08:15 | 26.35002 | -125.09321 | 38170 ft | 424 kts | 216° |
| 2026-04-24 08:16 | 26.29953 | -125.12733 | 38172 ft | 424 kts | 216° |
| 2026-04-24 08:16 | 26.24903 | -125.16142 | 38173 ft | 425 kts | 216° |
| 2026-04-24 08:17 | 26.19848 | -125.19551 | 38173 ft | 425 kts | 216° |
| 2026-04-24 08:17 | 26.14795 | -125.22955 | 38173 ft | 425 kts | 216° |
| 2026-04-24 08:18 | 26.09741 | -125.26357 | 38172 ft | 425 kts | 216° |
| 2026-04-24 08:18 | 26.04675 | -125.29764 | 38185 ft | 426 kts | 216° |
| 2026-04-24 08:19 | 25.99605 | -125.33169 | 38170 ft | 426 kts | 216° |
| 2026-04-24 08:19 | 25.94530 | -125.36573 | 38173 ft | 426 kts | 216° |
| 2026-04-24 08:20 | 25.89492 | -125.39950 | 38186 ft | 426 kts | 216° |
| 2026-04-24 08:20 | 25.84420 | -125.43347 | 38173 ft | 426 kts | 216° |
| 2026-04-24 08:21 | 25.79345 | -125.46742 | 38172 ft | 426 kts | 216° |
| 2026-04-24 08:21 | 25.74268 | -125.50135 | 38183 ft | 426 kts | 216° |
| 2026-04-24 08:22 | 25.69185 | -125.53528 | 38181 ft | 427 kts | 216° |
| 2026-04-24 08:22 | 25.64092 | -125.56925 | 38165 ft | 427 kts | 216° |
| 2026-04-24 08:23 | 25.59000 | -125.60317 | 38172 ft | 427 kts | 216° |
| 2026-04-24 08:23 | 25.53907 | -125.63707 | 38172 ft | 427 kts | 216° |
| 2026-04-24 08:24 | 25.48809 | -125.67096 | 38173 ft | 427 kts | 216° |
| 2026-04-24 08:24 | 25.43718 | -125.70477 | 38173 ft | 427 kts | 216° |
| 2026-04-24 08:25 | 25.38623 | -125.73858 | 38168 ft | 427 kts | 216° |
| 2026-04-24 08:25 | 25.33528 | -125.77236 | 38168 ft | 427 kts | 216° |
| 2026-04-24 08:26 | 25.28429 | -125.80613 | 38167 ft | 428 kts | 216° |
| 2026-04-24 08:26 | 25.23323 | -125.83992 | 38166 ft | 428 kts | 216° |
| 2026-04-24 08:27 | 25.18216 | -125.87367 | 38165 ft | 428 kts | 216° |
| 2026-04-24 08:27 | 25.13108 | -125.90739 | 38161 ft | 427 kts | 216° |
| 2026-04-24 08:28 | 25.08005 | -125.94105 | 38163 ft | 427 kts | 216° |
| 2026-04-24 08:28 | 25.02906 | -125.97465 | 38164 ft | 427 kts | 216° |
| 2026-04-24 08:29 | 24.97806 | -126.00823 | 38158 ft | 427 kts | 216° |
| 2026-04-24 08:29 | 24.92700 | -126.04182 | 38159 ft | 427 kts | 216° |
| 2026-04-24 08:30 | 24.87595 | -126.07536 | 38161 ft | 427 kts | 216° |
| 2026-04-24 08:30 | 24.82529 | -126.10860 | 38158 ft | 426 kts | 216° |
| 2026-04-24 08:31 | 24.77443 | -126.14195 | 38157 ft | 425 kts | 216° |
| 2026-04-24 08:31 | 24.72354 | -126.17530 | 38157 ft | 425 kts | 216° |
| 2026-04-24 08:32 | 24.67269 | -126.20859 | 38157 ft | 425 kts | 216° |
| 2026-04-24 08:32 | 24.62183 | -126.24185 | 38156 ft | 426 kts | 215° |
| 2026-04-24 08:33 | 24.57086 | -126.27515 | 38150 ft | 427 kts | 216° |
| 2026-04-24 08:33 | 24.51976 | -126.30851 | 38148 ft | 427 kts | 215° |
| 2026-04-24 08:34 | 24.46882 | -126.34170 | 38151 ft | 425 kts | 215° |
| 2026-04-24 08:34 | 24.41800 | -126.37481 | 38151 ft | 425 kts | 215° |
| 2026-04-24 08:35 | 24.36715 | -126.40790 | 38148 ft | 425 kts | 215° |
| 2026-04-24 08:35 | 24.31631 | -126.44096 | 38146 ft | 425 kts | 215° |
| 2026-04-24 08:36 | 24.26544 | -126.47401 | 38146 ft | 425 kts | 215° |
| 2026-04-24 08:36 | 24.21455 | -126.50703 | 38145 ft | 424 kts | 215° |
| 2026-04-24 08:37 | 24.16413 | -126.53971 | 38147 ft | 424 kts | 215° |
| 2026-04-24 08:37 | 24.11336 | -126.57260 | 38141 ft | 424 kts | 215° |
| 2026-04-24 08:38 | 24.06261 | -126.60544 | 38143 ft | 424 kts | 215° |
| 2026-04-24 08:38 | 24.01182 | -126.63829 | 38144 ft | 424 kts | 215° |
| 2026-04-24 08:39 | 23.96099 | -126.67112 | 38137 ft | 424 kts | 215° |
| 2026-04-24 08:39 | 23.91019 | -126.70390 | 38131 ft | 423 kts | 215° |
| 2026-04-24 08:40 | 23.85970 | -126.73643 | 38139 ft | 420 kts | 215° |
| 2026-04-24 08:40 | 23.80942 | -126.76883 | 38139 ft | 420 kts | 215° |
| 2026-04-24 08:41 | 23.75898 | -126.80132 | 38139 ft | 421 kts | 215° |
| 2026-04-24 08:41 | 23.70845 | -126.83381 | 38136 ft | 421 kts | 215° |
| 2026-04-24 08:42 | 23.66645 | -126.86079 | 38138 ft | 421 kts | 215° |
| 2026-04-24 08:42 | 23.61593 | -126.89321 | 38138 ft | 422 kts | 215° |
| 2026-04-24 08:43 | 23.56539 | -126.92562 | 38129 ft | 421 kts | 215° |
| 2026-04-24 08:43 | 23.51497 | -126.95793 | 38133 ft | 420 kts | 215° |
| 2026-04-24 08:44 | 23.46452 | -126.99023 | 38134 ft | 420 kts | 215° |
| 2026-04-24 08:44 | 23.41401 | -127.02254 | 38146 ft | 422 kts | 215° |
| 2026-04-24 08:45 | 23.36326 | -127.05498 | 38132 ft | 423 kts | 214° |
| 2026-04-24 08:45 | 23.31248 | -127.08740 | 38128 ft | 423 kts | 214° |
| 2026-04-24 08:46 | 23.26177 | -127.11974 | 38133 ft | 421 kts | 214° |
| 2026-04-24 08:46 | 23.21126 | -127.15192 | 38134 ft | 420 kts | 214° |
| 2026-04-24 08:47 | 23.16082 | -127.18404 | 38133 ft | 420 kts | 214° |
| 2026-04-24 08:47 | 23.11033 | -127.21617 | 38132 ft | 420 kts | 214° |
| 2026-04-24 08:48 | 23.05987 | -127.24825 | 38130 ft | 421 kts | 214° |
| 2026-04-24 08:48 | 23.00910 | -127.28051 | 38130 ft | 424 kts | 214° |
| 2026-04-24 08:49 | 22.95819 | -127.31281 | 38120 ft | 423 kts | 214° |
| 2026-04-24 08:49 | 22.90739 | -127.34500 | 38124 ft | 422 kts | 214° |
| 2026-04-24 08:50 | 22.85666 | -127.37713 | 38125 ft | 422 kts | 214° |
| 2026-04-24 08:50 | 22.80594 | -127.40923 | 38125 ft | 422 kts | 214° |
| 2026-04-24 08:51 | 22.75520 | -127.44132 | 38126 ft | 422 kts | 214° |
| 2026-04-24 08:51 | 22.70443 | -127.47339 | 38123 ft | 422 kts | 214° |
| 2026-04-24 08:52 | 22.65388 | -127.50530 | 38124 ft | 424 kts | 214° |
| 2026-04-24 08:52 | 22.60249 | -127.53772 | 38121 ft | 425 kts | 214° |
| 2026-04-24 08:53 | 22.55175 | -127.56969 | 38121 ft | 425 kts | 214° |
| 2026-04-24 08:53 | 22.50063 | -127.60186 | 38121 ft | 425 kts | 214° |
| 2026-04-24 08:54 | 22.44951 | -127.63402 | 38123 ft | 425 kts | 214° |
| 2026-04-24 08:54 | 22.39839 | -127.66615 | 38123 ft | 425 kts | 214° |
| 2026-04-24 08:55 | 22.34725 | -127.69827 | 38118 ft | 425 kts | 214° |
| 2026-04-24 08:55 | 22.29619 | -127.73030 | 38118 ft | 425 kts | 214° |
| 2026-04-24 08:56 | 22.24501 | -127.76239 | 38120 ft | 426 kts | 214° |
| 2026-04-24 08:56 | 22.19376 | -127.79449 | 38119 ft | 426 kts | 214° |
| 2026-04-24 08:57 | 22.14249 | -127.82657 | 38118 ft | 426 kts | 214° |
| 2026-04-24 08:57 | 22.09125 | -127.85861 | 38116 ft | 426 kts | 214° |
| 2026-04-24 08:58 | 22.03995 | -127.89066 | 38106 ft | 426 kts | 214° |
| 2026-04-24 08:58 | 21.98870 | -127.92265 | 38109 ft | 425 kts | 214° |
| 2026-04-24 08:59 | 21.93750 | -127.95458 | 38107 ft | 425 kts | 214° |
| 2026-04-24 08:59 | 21.88620 | -127.98656 | 38112 ft | 427 kts | 214° |
| 2026-04-24 09:00 | 21.83474 | -128.01861 | 38111 ft | 427 kts | 214° |
| 2026-04-24 09:00 | 21.78326 | -128.05057 | 38114 ft | 427 kts | 214° |
| 2026-04-24 09:01 | 21.73170 | -128.08241 | 38105 ft | 427 kts | 213° |
| 2026-04-24 09:01 | 21.68032 | -128.11410 | 38117 ft | 425 kts | 213° |
| 2026-04-24 09:02 | 21.62903 | -128.14576 | 38098 ft | 425 kts | 213° |
| 2026-04-24 09:02 | 21.57775 | -128.17740 | 38092 ft | 425 kts | 213° |
| 2026-04-24 09:03 | 21.52645 | -128.20903 | 38116 ft | 426 kts | 213° |
| 2026-04-24 09:03 | 21.47494 | -128.24076 | 38102 ft | 427 kts | 213° |
| 2026-04-24 09:04 | 21.42335 | -128.27250 | 38104 ft | 427 kts | 213° |
| 2026-04-24 09:04 | 21.37220 | -128.30394 | 38104 ft | 426 kts | 213° |
| 2026-04-24 09:05 | 21.32084 | -128.33549 | 38103 ft | 425 kts | 213° |
| 2026-04-24 09:05 | 21.26947 | -128.36703 | 38102 ft | 425 kts | 213° |
| 2026-04-24 09:06 | 21.21811 | -128.39854 | 38101 ft | 425 kts | 213° |
| 2026-04-24 09:06 | 21.16673 | -128.43002 | 38100 ft | 425 kts | 213° |
| 2026-04-24 09:07 | 21.11534 | -128.46149 | 38081 ft | 425 kts | 213° |
| 2026-04-24 09:07 | 21.03846 | -128.50851 | 38097 ft | 423 kts | 213° |
| 2026-04-24 09:08 | 20.98730 | -128.53979 | 38097 ft | 423 kts | 213° |
| 2026-04-24 09:08 | 20.93613 | -128.57104 | 38097 ft | 424 kts | 213° |
| 2026-04-24 09:09 | 20.88494 | -128.60227 | 38094 ft | 424 kts | 213° |
| 2026-04-24 09:09 | 20.83373 | -128.63349 | 38094 ft | 424 kts | 213° |
| 2026-04-24 09:10 | 20.78254 | -128.66468 | 38090 ft | 424 kts | 213° |
| 2026-04-24 09:10 | 20.73130 | -128.69587 | 38091 ft | 424 kts | 213° |
| 2026-04-24 09:11 | 20.68004 | -128.72705 | 38088 ft | 424 kts | 213° |
| 2026-04-24 09:11 | 20.62875 | -128.75822 | 38088 ft | 424 kts | 213° |
| 2026-04-24 09:12 | 20.57781 | -128.78916 | 38086 ft | 424 kts | 213° |
| 2026-04-24 09:12 | 20.52649 | -128.82030 | 38086 ft | 424 kts | 213° |
| 2026-04-24 09:13 | 20.47521 | -128.85139 | 38087 ft | 424 kts | 213° |
| 2026-04-24 09:13 | 20.42390 | -128.88248 | 38089 ft | 424 kts | 213° |
| 2026-04-24 09:14 | 20.37256 | -128.91356 | 38086 ft | 425 kts | 213° |
| 2026-04-24 09:14 | 20.32113 | -128.94467 | 38082 ft | 425 kts | 213° |
| 2026-04-24 09:15 | 20.26972 | -128.97574 | 38087 ft | 425 kts | 213° |
| 2026-04-24 09:15 | 20.21832 | -129.00679 | 38088 ft | 425 kts | 213° |
| 2026-04-24 09:16 | 20.16687 | -129.03784 | 38081 ft | 425 kts | 213° |
| 2026-04-24 09:16 | 20.11540 | -129.06889 | 38083 ft | 425 kts | 213° |
| 2026-04-24 09:17 | 20.06394 | -129.09989 | 38080 ft | 425 kts | 213° |
| 2026-04-24 09:17 | 20.01242 | -129.13092 | 38080 ft | 426 kts | 213° |
| 2026-04-24 09:18 | 19.96085 | -129.16196 | 38077 ft | 426 kts | 213° |
| 2026-04-24 09:18 | 19.90922 | -129.19299 | 38078 ft | 426 kts | 213° |
| 2026-04-24 09:19 | 19.85758 | -129.22402 | 38066 ft | 426 kts | 213° |
| 2026-04-24 09:19 | 19.80624 | -129.25484 | 38075 ft | 427 kts | 213° |
| 2026-04-24 09:20 | 19.75452 | -129.28587 | 38078 ft | 427 kts | 213° |
| 2026-04-24 09:20 | 19.70283 | -129.31686 | 38072 ft | 427 kts | 213° |
| 2026-04-24 09:21 | 19.65113 | -129.34782 | 38072 ft | 427 kts | 213° |
| 2026-04-24 09:21 | 19.59938 | -129.37880 | 38072 ft | 427 kts | 212° |
| 2026-04-24 09:22 | 19.54756 | -129.40979 | 38069 ft | 427 kts | 212° |
| 2026-04-24 09:22 | 19.49576 | -129.44075 | 38069 ft | 428 kts | 212° |
| 2026-04-24 09:23 | 19.44391 | -129.47171 | 38067 ft | 428 kts | 212° |
| 2026-04-24 09:23 | 19.39207 | -129.50265 | 38067 ft | 428 kts | 212° |
| 2026-04-24 09:24 | 19.34024 | -129.53356 | 38067 ft | 428 kts | 212° |
| 2026-04-24 09:24 | 19.28835 | -129.56448 | 38067 ft | 428 kts | 212° |
| 2026-04-24 09:25 | 19.23651 | -129.59535 | 38062 ft | 428 kts | 212° |
| 2026-04-24 09:25 | 19.18453 | -129.62628 | 38064 ft | 429 kts | 212° |
| 2026-04-24 09:26 | 19.13247 | -129.65724 | 38061 ft | 429 kts | 212° |
| 2026-04-24 09:26 | 19.08038 | -129.68818 | 38061 ft | 429 kts | 212° |
| 2026-04-24 09:27 | 19.02828 | -129.71911 | 38061 ft | 429 kts | 212° |
| 2026-04-24 09:27 | 18.97619 | -129.75002 | 38061 ft | 429 kts | 212° |
| 2026-04-24 09:28 | 18.93289 | -129.77569 | 38059 ft | 430 kts | 212° |
| 2026-04-24 09:28 | 18.88067 | -129.80663 | 38058 ft | 431 kts | 212° |
| 2026-04-24 09:29 | 18.82838 | -129.83760 | 38058 ft | 432 kts | 212° |
| 2026-04-24 09:29 | 18.77597 | -129.86860 | 38061 ft | 432 kts | 212° |
| 2026-04-24 09:30 | 18.71470 | -129.90482 | 38056 ft | 432 kts | 212° |
| 2026-04-24 09:30 | 18.67112 | -129.93056 | 38056 ft | 432 kts | 212° |
| 2026-04-24 09:31 | 18.61871 | -129.96151 | 38057 ft | 432 kts | 212° |
| 2026-04-24 09:31 | 18.56619 | -129.99250 | 38052 ft | 433 kts | 212° |
| 2026-04-24 09:32 | 18.51366 | -130.02346 | 38046 ft | 433 kts | 212° |
| 2026-04-24 09:32 | 18.46109 | -130.05443 | 38045 ft | 433 kts | 212° |
| 2026-04-24 09:33 | 18.40844 | -130.08543 | 38048 ft | 434 kts | 212° |
| 2026-04-24 09:33 | 18.35573 | -130.11643 | 38044 ft | 434 kts | 212° |
| 2026-04-24 09:34 | 18.30337 | -130.14722 | 38046 ft | 435 kts | 212° |
| 2026-04-24 09:34 | 18.25054 | -130.17825 | 38048 ft | 435 kts | 212° |
| 2026-04-24 09:35 | 18.19763 | -130.20931 | 38048 ft | 435 kts | 212° |
| 2026-04-24 09:35 | 18.14474 | -130.24034 | 38046 ft | 436 kts | 212° |
| 2026-04-24 09:36 | 18.09179 | -130.27137 | 38048 ft | 436 kts | 212° |
| 2026-04-24 09:36 | 18.03873 | -130.30246 | 38041 ft | 437 kts | 212° |
| 2026-04-24 09:37 | 17.98562 | -130.33355 | 38041 ft | 437 kts | 212° |
| 2026-04-24 09:37 | 17.93244 | -130.36466 | 38042 ft | 438 kts | 212° |
| 2026-04-24 09:38 | 17.87922 | -130.39577 | 38040 ft | 438 kts | 212° |
| 2026-04-24 09:38 | 17.82604 | -130.42684 | 38040 ft | 438 kts | 212° |
| 2026-04-24 09:39 | 17.77280 | -130.45792 | 38037 ft | 438 kts | 212° |
| 2026-04-24 09:39 | 17.71958 | -130.48897 | 38037 ft | 438 kts | 212° |
| 2026-04-24 09:40 | 17.66620 | -130.52009 | 38040 ft | 440 kts | 212° |
| 2026-04-24 09:40 | 17.61264 | -130.55130 | 38037 ft | 440 kts | 212° |
| 2026-04-24 09:41 | 17.55905 | -130.58249 | 38037 ft | 441 kts | 212° |
| 2026-04-24 09:41 | 17.50545 | -130.61367 | 38036 ft | 441 kts | 212° |
| 2026-04-24 09:42 | 17.45186 | -130.64483 | 38037 ft | 441 kts | 212° |
| 2026-04-24 09:42 | 17.39829 | -130.67595 | 38017 ft | 440 kts | 212° |
| 2026-04-24 09:43 | 17.34456 | -130.70715 | 38038 ft | 442 kts | 212° |
| 2026-04-24 09:43 | 17.29080 | -130.73835 | 38035 ft | 442 kts | 212° |
| 2026-04-24 09:44 | 17.23734 | -130.76934 | 38038 ft | 442 kts | 212° |
| 2026-04-24 09:44 | 17.18352 | -130.80052 | 38027 ft | 442 kts | 212° |
| 2026-04-24 09:45 | 17.12973 | -130.83167 | 38025 ft | 442 kts | 212° |
| 2026-04-24 09:45 | 17.07588 | -130.86283 | 38028 ft | 443 kts | 212° |
| 2026-04-24 09:46 | 17.02195 | -130.89402 | 38029 ft | 443 kts | 212° |
| 2026-04-24 09:46 | 16.96796 | -130.92522 | 38019 ft | 444 kts | 212° |
| 2026-04-24 09:47 | 16.91387 | -130.95645 | 38016 ft | 444 kts | 212° |
| 2026-04-24 09:47 | 16.85979 | -130.98767 | 38017 ft | 444 kts | 212° |
| 2026-04-24 09:48 | 16.80570 | -131.01886 | 38018 ft | 444 kts | 212° |
| 2026-04-24 09:48 | 16.75159 | -131.05005 | 38019 ft | 445 kts | 212° |
| 2026-04-24 09:49 | 16.69738 | -131.08128 | 38018 ft | 445 kts | 212° |
| 2026-04-24 09:49 | 16.64318 | -131.11247 | 38026 ft | 445 kts | 212° |
| 2026-04-24 09:50 | 16.58897 | -131.14366 | 38021 ft | 445 kts | 212° |
| 2026-04-24 09:50 | 16.53472 | -131.17485 | 38015 ft | 445 kts | 212° |
| 2026-04-24 09:51 | 16.48042 | -131.20604 | 38026 ft | 445 kts | 212° |
| 2026-04-24 09:51 | 16.42616 | -131.23719 | 38020 ft | 445 kts | 212° |
| 2026-04-24 09:52 | 16.37223 | -131.26813 | 38020 ft | 445 kts | 212° |
| 2026-04-24 09:52 | 16.31795 | -131.29925 | 38015 ft | 445 kts | 212° |
| 2026-04-24 09:53 | 16.26367 | -131.33036 | 38021 ft | 445 kts | 212° |
| 2026-04-24 09:53 | 16.20935 | -131.36147 | 38018 ft | 446 kts | 212° |
| 2026-04-24 09:54 | 16.15499 | -131.39257 | 38009 ft | 446 kts | 212° |
| 2026-04-24 09:54 | 16.10051 | -131.42373 | 38018 ft | 447 kts | 212° |
| 2026-04-24 09:55 | 16.04603 | -131.45487 | 38010 ft | 447 kts | 212° |
| 2026-04-24 09:55 | 15.99155 | -131.48599 | 38017 ft | 447 kts | 212° |
| 2026-04-24 09:56 | 15.93706 | -131.51710 | 38011 ft | 447 kts | 212° |
| 2026-04-24 09:56 | 15.88256 | -131.54819 | 38003 ft | 447 kts | 212° |
| 2026-04-24 09:57 | 15.82799 | -131.57931 | 38007 ft | 448 kts | 212° |
| 2026-04-24 09:57 | 15.77334 | -131.61045 | 38008 ft | 448 kts | 212° |
| 2026-04-24 09:58 | 15.71863 | -131.64160 | 38008 ft | 448 kts | 212° |
| 2026-04-24 09:58 | 15.66394 | -131.67272 | 38009 ft | 448 kts | 212° |
| 2026-04-24 09:59 | 15.60925 | -131.70382 | 38013 ft | 448 kts | 212° |
| 2026-04-24 09:59 | 15.55452 | -131.73493 | 37997 ft | 449 kts | 212° |
| 2026-04-24 10:00 | 15.49969 | -131.76608 | 38007 ft | 450 kts | 212° |
| 2026-04-24 10:00 | 15.44512 | -131.79706 | 38002 ft | 450 kts | 212° |
| 2026-04-24 10:01 | 15.39025 | -131.82818 | 38003 ft | 449 kts | 212° |
| 2026-04-24 10:01 | 15.33541 | -131.85928 | 38001 ft | 450 kts | 212° |
| 2026-04-24 10:02 | 15.28054 | -131.89037 | 38002 ft | 450 kts | 212° |
| 2026-04-24 10:02 | 15.22559 | -131.92149 | 38002 ft | 451 kts | 212° |
| 2026-04-24 10:03 | 15.17045 | -131.95271 | 37998 ft | 452 kts | 212° |
| 2026-04-24 10:03 | 15.11531 | -131.98389 | 37998 ft | 452 kts | 212° |
| 2026-04-24 10:04 | 15.06017 | -132.01506 | 37999 ft | 451 kts | 212° |
| 2026-04-24 10:04 | 15.00508 | -132.04618 | 37999 ft | 451 kts | 212° |
| 2026-04-24 10:05 | 14.94997 | -132.07730 | 37989 ft | 451 kts | 212° |
| 2026-04-24 10:05 | 14.89475 | -132.10847 | 37993 ft | 453 kts | 211° |
| 2026-04-24 10:06 | 14.81173 | -132.15528 | 37992 ft | 453 kts | 211° |
| 2026-04-24 10:07 | 14.75674 | -132.18626 | 37993 ft | 453 kts | 211° |
| 2026-04-24 10:07 | 14.70136 | -132.21744 | 37993 ft | 453 kts | 212° |
| 2026-04-24 10:08 | 14.64604 | -132.24858 | 37985 ft | 453 kts | 211° |
| 2026-04-24 10:08 | 14.59058 | -132.27979 | 37993 ft | 455 kts | 211° |
| 2026-04-24 10:09 | 14.53494 | -132.31107 | 37994 ft | 455 kts | 211° |
| 2026-04-24 10:09 | 14.47932 | -132.34234 | 37991 ft | 455 kts | 211° |
| 2026-04-24 10:10 | 14.42366 | -132.37356 | 37992 ft | 455 kts | 211° |
| 2026-04-24 10:10 | 14.36796 | -132.40479 | 37992 ft | 455 kts | 211° |
| 2026-04-24 10:11 | 14.31228 | -132.43601 | 37990 ft | 457 kts | 211° |
| 2026-04-24 10:11 | 14.25635 | -132.46735 | 37988 ft | 458 kts | 211° |
| 2026-04-24 10:12 | 14.20040 | -132.49869 | 37987 ft | 458 kts | 211° |
| 2026-04-24 10:12 | 14.14439 | -132.53004 | 37984 ft | 458 kts | 211° |
| 2026-04-24 10:13 | 14.08878 | -132.56115 | 37988 ft | 458 kts | 211° |
| 2026-04-24 10:13 | 14.03279 | -132.59245 | 37988 ft | 458 kts | 210° |
| 2026-04-24 10:14 | 13.97663 | -132.62383 | 37984 ft | 460 kts | 211° |
| 2026-04-24 10:14 | 13.92038 | -132.65524 | 37981 ft | 460 kts | 211° |
| 2026-04-24 10:15 | 13.86416 | -132.68663 | 37973 ft | 460 kts | 211° |
| 2026-04-24 10:15 | 13.80792 | -132.71800 | 37984 ft | 460 kts | 211° |
| 2026-04-24 10:16 | 13.75169 | -132.74936 | 37981 ft | 460 kts | 211° |
| 2026-04-24 10:16 | 13.69534 | -132.78076 | 37975 ft | 462 kts | 210° |
| 2026-04-24 10:17 | 13.63880 | -132.81226 | 37974 ft | 462 kts | 210° |
| 2026-04-24 10:17 | 13.58229 | -132.84371 | 37978 ft | 462 kts | 210° |
| 2026-04-24 10:18 | 13.52573 | -132.87517 | 37977 ft | 462 kts | 210° |
| 2026-04-24 10:18 | 13.46919 | -132.90661 | 37975 ft | 462 kts | 210° |
| 2026-04-24 10:19 | 13.42218 | -132.93273 | 37971 ft | 462 kts | 210° |
| 2026-04-24 10:19 | 13.36561 | -132.96416 | 37979 ft | 462 kts | 210° |
| 2026-04-24 10:20 | 13.30905 | -132.99556 | 37977 ft | 462 kts | 210° |
| 2026-04-24 10:20 | 13.25248 | -133.02695 | 37955 ft | 462 kts | 210° |
| 2026-04-24 10:21 | 13.19598 | -133.05828 | 37978 ft | 461 kts | 210° |
| 2026-04-24 10:21 | 13.13951 | -133.08958 | 37971 ft | 461 kts | 210° |
| 2026-04-24 10:22 | 13.08293 | -133.12094 | 37976 ft | 463 kts | 210° |
| 2026-04-24 10:22 | 13.02620 | -133.15235 | 37971 ft | 463 kts | 210° |
| 2026-04-24 10:23 | 12.96946 | -133.18375 | 37971 ft | 463 kts | 210° |
| 2026-04-24 10:23 | 12.91270 | -133.21514 | 37972 ft | 463 kts | 210° |
| 2026-04-24 10:24 | 12.85593 | -133.24653 | 37967 ft | 463 kts | 210° |
| 2026-04-24 10:24 | 12.79916 | -133.27790 | 37973 ft | 464 kts | 210° |
| 2026-04-24 10:25 | 12.74229 | -133.30931 | 37967 ft | 464 kts | 210° |
| 2026-04-24 10:25 | 12.68544 | -133.34069 | 37970 ft | 464 kts | 210° |
| 2026-04-24 10:26 | 12.62858 | -133.37206 | 37969 ft | 464 kts | 210° |
| 2026-04-24 10:26 | 12.57171 | -133.40342 | 37965 ft | 464 kts | 210° |
| 2026-04-24 10:27 | 12.51482 | -133.43478 | 37969 ft | 465 kts | 210° |
| 2026-04-24 10:27 | 12.45781 | -133.46618 | 37967 ft | 465 kts | 210° |
| 2026-04-24 10:28 | 12.40083 | -133.49755 | 37964 ft | 465 kts | 210° |
| 2026-04-24 10:28 | 12.34421 | -133.52871 | 37965 ft | 465 kts | 210° |
| 2026-04-24 10:29 | 12.28685 | -133.56027 | 37964 ft | 465 kts | 210° |
| 2026-04-24 10:29 | 12.23023 | -133.59139 | 37962 ft | 466 kts | 210° |
| 2026-04-24 10:30 | 12.17313 | -133.62277 | 37957 ft | 466 kts | 210° |
| 2026-04-24 10:30 | 12.11601 | -133.65414 | 37961 ft | 466 kts | 210° |
| 2026-04-24 10:31 | 12.05894 | -133.68547 | 37959 ft | 465 kts | 210° |
| 2026-04-24 10:31 | 12.00191 | -133.71676 | 37959 ft | 465 kts | 210° |
| 2026-04-24 10:32 | 11.94484 | -133.74806 | 37955 ft | 466 kts | 210° |
| 2026-04-24 10:32 | 11.88760 | -133.77944 | 37955 ft | 467 kts | 210° |
| 2026-04-24 10:33 | 11.83028 | -133.81085 | 37957 ft | 468 kts | 210° |
| 2026-04-24 10:33 | 11.77296 | -133.84224 | 37955 ft | 468 kts | 210° |
| 2026-04-24 10:34 | 11.71561 | -133.87363 | 37949 ft | 468 kts | 210° |
| 2026-04-24 10:34 | 11.65821 | -133.90503 | 37946 ft | 468 kts | 210° |
| 2026-04-24 10:35 | 11.60070 | -133.93648 | 37946 ft | 470 kts | 210° |
| 2026-04-24 10:35 | 11.54309 | -133.96798 | 37946 ft | 470 kts | 210° |
| 2026-04-24 10:36 | 11.48543 | -133.99947 | 37945 ft | 470 kts | 210° |
| 2026-04-24 10:36 | 11.42781 | -134.03094 | 37945 ft | 470 kts | 210° |
| 2026-04-24 10:37 | 11.37015 | -134.06241 | 37940 ft | 470 kts | 210° |
| 2026-04-24 10:37 | 11.31247 | -134.09388 | 37945 ft | 471 kts | 210° |
| 2026-04-24 10:38 | 11.25464 | -134.12542 | 37945 ft | 471 kts | 210° |
| 2026-04-24 10:38 | 11.19685 | -134.15692 | 37942 ft | 471 kts | 210° |
| 2026-04-24 10:39 | 11.13903 | -134.18842 | 37944 ft | 471 kts | 210° |
| 2026-04-24 10:39 | 11.08123 | -134.21990 | 37941 ft | 471 kts | 210° |
| 2026-04-24 10:40 | 11.02376 | -134.25119 | 37940 ft | 472 kts | 210° |
| 2026-04-24 10:40 | 10.96546 | -134.28291 | 37940 ft | 472 kts | 210° |
| 2026-04-24 10:41 | 10.90793 | -134.31420 | 37940 ft | 472 kts | 210° |
| 2026-04-24 10:41 | 10.85004 | -134.34566 | 37936 ft | 472 kts | 210° |
| 2026-04-24 10:42 | 10.79217 | -134.37711 | 37938 ft | 472 kts | 210° |
| 2026-04-24 10:42 | 10.73445 | -134.40845 | 37938 ft | 468 kts | 209° |
| 2026-04-24 10:43 | 10.67714 | -134.43957 | 37934 ft | 467 kts | 209° |
| 2026-04-24 10:43 | 10.61985 | -134.47066 | 37935 ft | 467 kts | 209° |
| 2026-04-24 10:44 | 10.56258 | -134.50173 | 37934 ft | 467 kts | 209° |
| 2026-04-24 10:44 | 10.50531 | -134.53278 | 37935 ft | 466 kts | 209° |
| 2026-04-24 10:45 | 10.44804 | -134.56382 | 37935 ft | 466 kts | 209° |
| 2026-04-24 10:45 | 10.39080 | -134.59483 | 37929 ft | 467 kts | 209° |
| 2026-04-24 10:46 | 10.33354 | -134.62584 | 37928 ft | 467 kts | 209° |
| 2026-04-24 10:46 | 10.27622 | -134.65686 | 37927 ft | 467 kts | 209° |
| 2026-04-24 10:47 | 10.21896 | -134.68784 | 37927 ft | 467 kts | 209° |
| 2026-04-24 10:47 | 10.16159 | -134.71887 | 37928 ft | 468 kts | 209° |
| 2026-04-24 10:48 | 10.10442 | -134.74978 | 37928 ft | 469 kts | 209° |
| 2026-04-24 10:48 | 10.04647 | -134.78109 | 37927 ft | 469 kts | 209° |
| 2026-04-24 10:49 | 9.98931 | -134.81197 | 37928 ft | 469 kts | 209° |
| 2026-04-24 10:49 | 9.93176 | -134.84304 | 37923 ft | 469 kts | 209° |
| 2026-04-24 10:50 | 9.87412 | -134.87416 | 37926 ft | 470 kts | 209° |
| 2026-04-24 10:50 | 9.81631 | -134.90535 | 37926 ft | 471 kts | 209° |
| 2026-04-24 10:51 | 9.75851 | -134.93652 | 37928 ft | 471 kts | 209° |
| 2026-04-24 10:51 | 9.70070 | -134.96768 | 37923 ft | 471 kts | 209° |
| 2026-04-24 10:52 | 9.64285 | -134.99886 | 37927 ft | 471 kts | 209° |
| 2026-04-24 10:52 | 9.58496 | -135.03004 | 37921 ft | 472 kts | 210° |
| 2026-04-24 10:53 | 9.52698 | -135.06127 | 37920 ft | 472 kts | 210° |
| 2026-04-24 10:53 | 9.46895 | -135.09250 | 37923 ft | 472 kts | 209° |
| 2026-04-24 10:54 | 9.41094 | -135.12371 | 37919 ft | 472 kts | 209° |
| 2026-04-24 10:54 | 9.35292 | -135.15492 | 37920 ft | 473 kts | 210° |
| 2026-04-24 10:55 | 9.29478 | -135.18618 | 37923 ft | 473 kts | 210° |
| 2026-04-24 10:55 | 9.23662 | -135.21743 | 37919 ft | 473 kts | 210° |
| 2026-04-24 10:56 | 9.17848 | -135.24867 | 37918 ft | 473 kts | 210° |
| 2026-04-24 10:56 | 9.12028 | -135.27993 | 37913 ft | 474 kts | 210° |
| 2026-04-24 10:57 | 9.06205 | -135.31119 | 37914 ft | 474 kts | 210° |
| 2026-04-24 10:57 | 9.00419 | -135.34224 | 37911 ft | 474 kts | 210° |
| 2026-04-24 10:58 | 8.94596 | -135.37348 | 37911 ft | 474 kts | 210° |
| 2026-04-24 10:58 | 8.88768 | -135.40473 | 37907 ft | 474 kts | 210° |
| 2026-04-24 10:59 | 8.82945 | -135.43594 | 37911 ft | 474 kts | 210° |
| 2026-04-24 10:59 | 8.77119 | -135.46716 | 37911 ft | 474 kts | 210° |
| 2026-04-24 11:00 | 8.71292 | -135.49838 | 37909 ft | 474 kts | 210° |
| 2026-04-24 11:00 | 8.65469 | -135.52956 | 37910 ft | 474 kts | 210° |
| 2026-04-24 11:01 | 8.59641 | -135.56076 | 37909 ft | 474 kts | 210° |
| 2026-04-24 11:01 | 8.53812 | -135.59195 | 37905 ft | 474 kts | 210° |
| 2026-04-24 11:02 | 8.47996 | -135.62306 | 37904 ft | 472 kts | 210° |
| 2026-04-24 11:02 | 8.42189 | -135.65411 | 37904 ft | 472 kts | 210° |
| 2026-04-24 11:03 | 8.36379 | -135.68517 | 37902 ft | 472 kts | 210° |
| 2026-04-24 11:03 | 8.30570 | -135.71621 | 37901 ft | 472 kts | 210° |
| 2026-04-24 11:04 | 8.24763 | -135.74723 | 37902 ft | 472 kts | 210° |
| 2026-04-24 11:04 | 8.19936 | -135.77301 | 37901 ft | 472 kts | 210° |
| 2026-04-24 11:05 | 8.14132 | -135.80400 | 37896 ft | 471 kts | 210° |
| 2026-04-24 11:05 | 8.08345 | -135.83488 | 37895 ft | 471 kts | 210° |
| 2026-04-24 11:06 | 8.02554 | -135.86578 | 37894 ft | 471 kts | 210° |
| 2026-04-24 11:06 | 7.96767 | -135.89664 | 37895 ft | 471 kts | 210° |
| 2026-04-24 11:07 | 7.88084 | -135.94294 | 37896 ft | 470 kts | 210° |
| 2026-04-24 11:07 | 7.82303 | -135.97374 | 37896 ft | 469 kts | 209° |
| 2026-04-24 11:08 | 7.76532 | -136.00449 | 37895 ft | 469 kts | 209° |
| 2026-04-24 11:08 | 7.70761 | -136.03522 | 37892 ft | 469 kts | 209° |
| 2026-04-24 11:09 | 7.64990 | -136.06594 | 37885 ft | 469 kts | 209° |
| 2026-04-24 11:09 | 7.59221 | -136.09665 | 37893 ft | 469 kts | 209° |
| 2026-04-24 11:10 | 7.53455 | -136.12733 | 37887 ft | 468 kts | 209° |
| 2026-04-24 11:10 | 7.47695 | -136.15797 | 37889 ft | 469 kts | 209° |
| 2026-04-24 11:11 | 7.41928 | -136.18864 | 37891 ft | 469 kts | 209° |
| 2026-04-24 11:11 | 7.36159 | -136.21931 | 37889 ft | 469 kts | 209° |
| 2026-04-24 11:12 | 7.30389 | -136.24997 | 37888 ft | 469 kts | 209° |
| 2026-04-24 11:12 | 7.24621 | -136.28062 | 37890 ft | 469 kts | 209° |
| 2026-04-24 11:13 | 7.18852 | -136.31126 | 37888 ft | 469 kts | 209° |
| 2026-04-24 11:13 | 7.13079 | -136.34194 | 37888 ft | 469 kts | 209° |
| 2026-04-24 11:14 | 7.07335 | -136.37242 | 37883 ft | 471 kts | 209° |
| 2026-04-24 11:14 | 7.01539 | -136.40316 | 37885 ft | 471 kts | 209° |
| 2026-04-24 11:15 | 6.95747 | -136.43387 | 37881 ft | 471 kts | 209° |
| 2026-04-24 11:15 | 6.89952 | -136.46460 | 37886 ft | 471 kts | 209° |
| 2026-04-24 11:16 | 6.84150 | -136.49537 | 37881 ft | 472 kts | 209° |
| 2026-04-24 11:16 | 6.78324 | -136.52625 | 37882 ft | 473 kts | 209° |
| 2026-04-24 11:17 | 6.72497 | -136.55712 | 37888 ft | 473 kts | 209° |
| 2026-04-24 11:17 | 6.66671 | -136.58798 | 37887 ft | 473 kts | 209° |
| 2026-04-24 11:18 | 6.60842 | -136.61885 | 37885 ft | 474 kts | 209° |
| 2026-04-24 11:18 | 6.54992 | -136.64983 | 37881 ft | 476 kts | 209° |
| 2026-04-24 11:19 | 6.49134 | -136.68084 | 37879 ft | 476 kts | 209° |
| 2026-04-24 11:19 | 6.43272 | -136.71185 | 37878 ft | 476 kts | 209° |
| 2026-04-24 11:20 | 6.37409 | -136.74287 | 37880 ft | 476 kts | 209° |
| 2026-04-24 11:20 | 6.31543 | -136.77390 | 37880 ft | 477 kts | 209° |
| 2026-04-24 11:21 | 6.25670 | -136.80495 | 37879 ft | 477 kts | 209° |
| 2026-04-24 11:21 | 6.19797 | -136.83600 | 37882 ft | 477 kts | 209° |
| 2026-04-24 11:22 | 6.13960 | -136.86684 | 37878 ft | 477 kts | 209° |
| 2026-04-24 11:22 | 6.08087 | -136.89787 | 37879 ft | 477 kts | 209° |
| 2026-04-24 11:23 | 6.02220 | -136.92886 | 37876 ft | 476 kts | 209° |
| 2026-04-24 11:23 | 5.96358 | -136.95982 | 37879 ft | 476 kts | 209° |
| 2026-04-24 11:24 | 5.90490 | -136.99080 | 37874 ft | 476 kts | 209° |
| 2026-04-24 11:24 | 5.84624 | -137.02176 | 37873 ft | 476 kts | 209° |
| 2026-04-24 11:25 | 5.78755 | -137.05273 | 37874 ft | 476 kts | 209° |
| 2026-04-24 11:25 | 5.72888 | -137.08369 | 37873 ft | 476 kts | 209° |
| 2026-04-24 11:26 | 5.67022 | -137.11463 | 37874 ft | 476 kts | 209° |
| 2026-04-24 11:26 | 5.61159 | -137.14555 | 37874 ft | 476 kts | 209° |
| 2026-04-24 11:27 | 5.55292 | -137.17648 | 37877 ft | 476 kts | 209° |
| 2026-04-24 11:27 | 5.49440 | -137.20732 | 37872 ft | 475 kts | 209° |
| 2026-04-24 11:28 | 5.43591 | -137.23815 | 37871 ft | 475 kts | 209° |
| 2026-04-24 11:28 | 5.37747 | -137.26894 | 37877 ft | 475 kts | 209° |
| 2026-04-24 11:29 | 5.31896 | -137.29976 | 37877 ft | 475 kts | 209° |
| 2026-04-24 11:29 | 5.26055 | -137.33051 | 37874 ft | 473 kts | 210° |
| 2026-04-24 11:30 | 5.20237 | -137.36115 | 37875 ft | 472 kts | 210° |
| 2026-04-24 11:30 | 5.14422 | -137.39176 | 37875 ft | 472 kts | 210° |
| 2026-04-24 11:31 | 5.08604 | -137.42239 | 37882 ft | 472 kts | 210° |
| 2026-04-24 11:31 | 5.02784 | -137.45301 | 37868 ft | 471 kts | 210° |
| 2026-04-24 11:32 | 4.97002 | -137.48342 | 37877 ft | 468 kts | 210° |
| 2026-04-24 11:32 | 4.91234 | -137.51376 | 37877 ft | 468 kts | 210° |
| 2026-04-24 11:33 | 4.85474 | -137.54406 | 37877 ft | 468 kts | 210° |
| 2026-04-24 11:33 | 4.79747 | -137.57418 | 37877 ft | 468 kts | 210° |
| 2026-04-24 11:34 | 4.73985 | -137.60446 | 37875 ft | 468 kts | 210° |
| 2026-04-24 11:34 | 4.68223 | -137.63475 | 37875 ft | 467 kts | 210° |
| 2026-04-24 11:35 | 4.62466 | -137.66500 | 37875 ft | 467 kts | 210° |
| 2026-04-24 11:35 | 4.56702 | -137.69528 | 37878 ft | 467 kts | 210° |
| 2026-04-24 11:36 | 4.50942 | -137.72554 | 37870 ft | 467 kts | 210° |
| 2026-04-24 11:36 | 4.45182 | -137.75579 | 37878 ft | 467 kts | 210° |
| 2026-04-24 11:37 | 4.39421 | -137.78604 | 37878 ft | 467 kts | 210° |
| 2026-04-24 11:37 | 4.33660 | -137.81629 | 37879 ft | 468 kts | 210° |
| 2026-04-24 11:38 | 4.27892 | -137.84657 | 37881 ft | 468 kts | 210° |
| 2026-04-24 11:38 | 4.22122 | -137.87685 | 37879 ft | 468 kts | 210° |
| 2026-04-24 11:39 | 4.16345 | -137.90716 | 37878 ft | 469 kts | 210° |
| 2026-04-24 11:39 | 4.10573 | -137.93744 | 37878 ft | 469 kts | 210° |
| 2026-04-24 11:40 | 4.04795 | -137.96776 | 37878 ft | 469 kts | 210° |
| 2026-04-24 11:40 | 3.99021 | -137.99804 | 37881 ft | 469 kts | 210° |
| 2026-04-24 11:41 | 3.93239 | -138.02837 | 37881 ft | 470 kts | 210° |
| 2026-04-24 11:41 | 3.87426 | -138.05885 | 37884 ft | 473 kts | 210° |
| 2026-04-24 11:42 | 3.81599 | -138.08938 | 37881 ft | 473 kts | 210° |
| 2026-04-24 11:42 | 3.75773 | -138.11992 | 37880 ft | 473 kts | 210° |
| 2026-04-24 11:43 | 3.69945 | -138.15046 | 37881 ft | 473 kts | 210° |
| 2026-04-24 11:43 | 3.64105 | -138.18107 | 37881 ft | 477 kts | 209° |
| 2026-04-24 11:44 | 3.58249 | -138.21176 | 37880 ft | 479 kts | 209° |
| 2026-04-24 11:44 | 3.52346 | -138.24268 | 37883 ft | 479 kts | 209° |
| 2026-04-24 11:45 | 3.46431 | -138.27342 | 37883 ft | 479 kts | 208° |
| 2026-04-24 11:45 | 3.40423 | -138.30347 | 37884 ft | 480 kts | 208° |
| 2026-04-24 11:46 | 3.34468 | -138.33309 | 37883 ft | 482 kts | 208° |
| 2026-04-24 11:46 | 3.28459 | -138.36314 | 37883 ft | 483 kts | 208° |
| 2026-04-24 11:47 | 3.22450 | -138.39329 | 37883 ft | 483 kts | 208° |
| 2026-04-24 11:47 | 3.16440 | -138.42347 | 37886 ft | 483 kts | 208° |
| 2026-04-24 11:48 | 3.10434 | -138.45362 | 37883 ft | 483 kts | 208° |
| 2026-04-24 11:48 | 3.04432 | -138.48375 | 37883 ft | 483 kts | 208° |
| 2026-04-24 11:49 | 2.98426 | -138.51389 | 37883 ft | 483 kts | 208° |
| 2026-04-24 11:49 | 2.92421 | -138.54402 | 37883 ft | 483 kts | 208° |
| 2026-04-24 11:50 | 2.87433 | -138.56904 | 37888 ft | 483 kts | 208° |
| 2026-04-24 11:50 | 2.80399 | -138.60433 | 37888 ft | 485 kts | 208° |
| 2026-04-24 11:51 | 2.75376 | -138.62953 | 37886 ft | 486 kts | 208° |
| 2026-04-24 11:51 | 2.69329 | -138.65985 | 37884 ft | 486 kts | 208° |
| 2026-04-24 11:52 | 2.63279 | -138.69019 | 37883 ft | 486 kts | 208° |
| 2026-04-24 11:52 | 2.57232 | -138.72051 | 37883 ft | 486 kts | 208° |
| 2026-04-24 11:53 | 2.51167 | -138.75092 | 37883 ft | 488 kts | 208° |
| 2026-04-24 11:53 | 2.45096 | -138.78135 | 37883 ft | 488 kts | 208° |
| 2026-04-24 11:54 | 2.39019 | -138.81180 | 37883 ft | 488 kts | 208° |
| 2026-04-24 11:54 | 2.32938 | -138.84228 | 38010 ft | 489 kts | 208° |
| 2026-04-24 11:55 | 2.29944 | -138.85729 | 38226 ft | 488 kts | 208° |
| 2026-04-24 11:55 | 2.26902 | -138.87253 | 38336 ft | 490 kts | 208° |
| 2026-04-24 11:55 | 2.20795 | -138.90314 | 38612 ft | 491 kts | 208° |
| 2026-04-24 11:56 | 2.17748 | -138.91840 | 38826 ft | 489 kts | 208° |
| 2026-04-24 11:56 | 2.14710 | -138.93362 | 39018 ft | 488 kts | 208° |
| 2026-04-24 11:56 | 2.11681 | -138.94880 | 39194 ft | 487 kts | 208° |
| 2026-04-24 11:56 | 2.08662 | -138.96393 | 39357 ft | 486 kts | 208° |
| 2026-04-24 11:57 | 2.05643 | -138.97905 | 39509 ft | 485 kts | 208° |
| 2026-04-24 11:57 | 2.02629 | -138.99415 | 39669 ft | 484 kts | 208° |
| 2026-04-24 11:57 | 1.99621 | -139.00921 | 39798 ft | 484 kts | 209° |
| 2026-04-24 11:57 | 1.96610 | -139.02430 | 39855 ft | 485 kts | 209° |
| 2026-04-24 11:58 | 1.90573 | -139.05455 | 39883 ft | 485 kts | 209° |
| 2026-04-24 11:58 | 1.84542 | -139.08475 | 39884 ft | 485 kts | 209° |
| 2026-04-24 11:59 | 1.78516 | -139.11493 | 39884 ft | 484 kts | 209° |
| 2026-04-24 11:59 | 1.72489 | -139.14511 | 39882 ft | 484 kts | 209° |
| 2026-04-24 12:00 | 1.66478 | -139.17521 | 39885 ft | 483 kts | 209° |
| 2026-04-24 12:00 | 1.60471 | -139.20529 | 39886 ft | 483 kts | 209° |
| 2026-04-24 12:01 | 1.54467 | -139.23536 | 39885 ft | 483 kts | 209° |
| 2026-04-24 12:01 | 1.48460 | -139.26543 | 39883 ft | 483 kts | 209° |
| 2026-04-24 12:02 | 1.42499 | -139.29527 | 39884 ft | 483 kts | 210° |
| 2026-04-24 12:02 | 1.36487 | -139.32537 | 39884 ft | 483 kts | 209° |
| 2026-04-24 12:03 | 1.30475 | -139.35546 | 39883 ft | 483 kts | 209° |
| 2026-04-24 12:03 | 1.24422 | -139.38576 | 39884 ft | 483 kts | 209° |
| 2026-04-24 12:04 | 1.18453 | -139.41563 | 39884 ft | 483 kts | 209° |
| 2026-04-24 12:04 | 1.12439 | -139.44573 | 39883 ft | 483 kts | 210° |
| 2026-04-24 12:05 | 1.06438 | -139.47576 | 39882 ft | 482 kts | 210° |
| 2026-04-24 12:05 | 1.00433 | -139.50581 | 39883 ft | 482 kts | 210° |
| 2026-04-24 12:06 | 0.94434 | -139.53583 | 39881 ft | 482 kts | 210° |
| 2026-04-24 12:06 | 0.88400 | -139.56602 | 39879 ft | 481 kts | 210° |
| 2026-04-24 12:07 | 0.82446 | -139.59581 | 39882 ft | 482 kts | 210° |
| 2026-04-24 12:07 | 0.76448 | -139.62583 | 39881 ft | 482 kts | 210° |
| 2026-04-24 12:08 | 0.70448 | -139.65585 | 39884 ft | 482 kts | 210° |
| 2026-04-24 12:08 | 0.64442 | -139.68590 | 39884 ft | 482 kts | 210° |
| 2026-04-24 12:09 | 0.58442 | -139.71591 | 39884 ft | 482 kts | 210° |
| 2026-04-24 12:09 | 0.52439 | -139.74595 | 39882 ft | 482 kts | 211° |
| 2026-04-24 12:10 | 0.46443 | -139.77594 | 39878 ft | 482 kts | 211° |
| 2026-04-24 12:11 | 0.37458 | -139.82089 | 39882 ft | 481 kts | 211° |
| 2026-04-24 12:11 | 0.31472 | -139.85084 | 39882 ft | 481 kts | 211° |
| 2026-04-24 12:12 | 0.25487 | -139.88078 | 39878 ft | 481 kts | 211° |
| 2026-04-24 12:12 | 0.19499 | -139.91074 | 39879 ft | 481 kts | 211° |
| 2026-04-24 12:13 | 0.13511 | -139.94069 | 39878 ft | 481 kts | 211° |
| 2026-04-24 12:13 | 0.07524 | -139.97064 | 39876 ft | 481 kts | 211° |
| 2026-04-24 12:14 | 0.01545 | -140.00054 | 39879 ft | 480 kts | 211° |
| 2026-04-24 12:14 | -0.04409 | -140.03034 | 39883 ft | 478 kts | 211° |
| 2026-04-24 12:15 | -0.10347 | -140.05999 | 39881 ft | 477 kts | 211° |
| 2026-04-24 12:15 | -0.16278 | -140.08962 | 39880 ft | 477 kts | 211° |
| 2026-04-24 12:16 | -0.22210 | -140.11925 | 39882 ft | 477 kts | 211° |
| 2026-04-24 12:16 | -0.28140 | -140.14888 | 39882 ft | 477 kts | 211° |
| 2026-04-24 12:17 | -0.34066 | -140.17849 | 39883 ft | 475 kts | 211° |
| 2026-04-24 12:17 | -0.39973 | -140.20801 | 39884 ft | 474 kts | 211° |
| 2026-04-24 12:18 | -0.45868 | -140.23747 | 39866 ft | 474 kts | 211° |
| 2026-04-24 12:18 | -0.51763 | -140.26693 | 39883 ft | 474 kts | 211° |
| 2026-04-24 12:19 | -0.57657 | -140.29639 | 39884 ft | 474 kts | 211° |
| 2026-04-24 12:19 | -0.63558 | -140.32588 | 39864 ft | 475 kts | 212° |
| 2026-04-24 12:20 | -0.69468 | -140.35542 | 39880 ft | 475 kts | 212° |
| 2026-04-24 12:20 | -0.75378 | -140.38495 | 39883 ft | 475 kts | 212° |
| 2026-04-24 12:21 | -0.81288 | -140.41449 | 39867 ft | 475 kts | 212° |
| 2026-04-24 12:21 | -0.87201 | -140.44404 | 39872 ft | 476 kts | 212° |
| 2026-04-24 12:22 | -0.93121 | -140.47363 | 39887 ft | 475 kts | 212° |
| 2026-04-24 12:22 | -0.98987 | -140.50294 | 39871 ft | 475 kts | 212° |
| 2026-04-24 12:23 | -1.04895 | -140.53247 | 39868 ft | 475 kts | 212° |
| 2026-04-24 12:23 | -1.10802 | -140.56200 | 39884 ft | 475 kts | 212° |
| 2026-04-24 12:24 | -1.16709 | -140.59154 | 39886 ft | 475 kts | 212° |
| 2026-04-24 12:24 | -1.22614 | -140.62105 | 39871 ft | 474 kts | 212° |
| 2026-04-24 12:25 | -1.28503 | -140.65049 | 39870 ft | 473 kts | 212° |
| 2026-04-24 12:25 | -1.34391 | -140.67993 | 39869 ft | 473 kts | 212° |
| 2026-04-24 12:26 | -1.40284 | -140.70940 | 39892 ft | 473 kts | 212° |
| 2026-04-24 12:26 | -1.46174 | -140.73885 | 39875 ft | 473 kts | 212° |
| 2026-04-24 12:27 | -1.52060 | -140.76827 | 39880 ft | 472 kts | 213° |
| 2026-04-24 12:27 | -1.57931 | -140.79763 | 39877 ft | 471 kts | 213° |
| 2026-04-24 12:28 | -1.63795 | -140.82696 | 39878 ft | 471 kts | 213° |
| 2026-04-24 12:28 | -1.69663 | -140.85632 | 39877 ft | 471 kts | 213° |
| 2026-04-24 12:29 | -1.75526 | -140.88565 | 39872 ft | 471 kts | 213° |
| 2026-04-24 12:29 | -1.81387 | -140.91495 | 39875 ft | 470 kts | 213° |
| 2026-04-24 12:30 | -1.87230 | -140.94417 | 39895 ft | 469 kts | 213° |
| 2026-04-24 12:30 | -1.93058 | -140.97333 | 39878 ft | 469 kts | 213° |
| 2026-04-24 12:31 | -1.98891 | -141.00253 | 39875 ft | 469 kts | 213° |
| 2026-04-24 12:31 | -2.04721 | -141.03171 | 39879 ft | 469 kts | 213° |
| 2026-04-24 12:32 | -2.10551 | -141.06088 | 39874 ft | 469 kts | 213° |
| 2026-04-24 12:32 | -2.16341 | -141.08985 | 39874 ft | 468 kts | 213° |
| 2026-04-24 12:33 | -2.22168 | -141.11902 | 39873 ft | 468 kts | 213° |
| 2026-04-24 12:33 | -2.27995 | -141.14819 | 39874 ft | 468 kts | 213° |
| 2026-04-24 12:34 | -2.33823 | -141.17736 | 39875 ft | 468 kts | 213° |
| 2026-04-24 12:34 | -2.39650 | -141.20653 | 39880 ft | 468 kts | 213° |
| 2026-04-24 12:35 | -2.45480 | -141.23573 | 39877 ft | 469 kts | 213° |
| 2026-04-24 12:35 | -2.51316 | -141.26495 | 39876 ft | 469 kts | 213° |
| 2026-04-24 12:36 | -2.57152 | -141.29417 | 39874 ft | 469 kts | 213° |
| 2026-04-24 12:36 | -2.62984 | -141.32338 | 39871 ft | 469 kts | 213° |
| 2026-04-24 12:37 | -2.68818 | -141.35261 | 39872 ft | 469 kts | 213° |
| 2026-04-24 12:37 | -2.73668 | -141.37690 | 39871 ft | 469 kts | 213° |
| 2026-04-24 12:38 | -2.79501 | -141.40613 | 39871 ft | 469 kts | 213° |
| 2026-04-24 12:38 | -2.85333 | -141.43535 | 39871 ft | 469 kts | 213° |
| 2026-04-24 12:39 | -2.97003 | -141.49383 | 39873 ft | 469 kts | 213° |
| 2026-04-24 12:40 | -3.02842 | -141.52310 | 39879 ft | 470 kts | 213° |
| 2026-04-24 12:40 | -3.08693 | -141.55243 | 39875 ft | 471 kts | 213° |
| 2026-04-24 12:41 | -3.14554 | -141.58182 | 39872 ft | 471 kts | 213° |
| 2026-04-24 12:41 | -3.20412 | -141.61119 | 39876 ft | 471 kts | 213° |
| 2026-04-24 12:42 | -3.26276 | -141.64059 | 39874 ft | 471 kts | 213° |
| 2026-04-24 12:42 | -3.32139 | -141.66999 | 39871 ft | 472 kts | 213° |
| 2026-04-24 12:43 | -3.38013 | -141.69946 | 39875 ft | 472 kts | 213° |
| 2026-04-24 12:43 | -3.43888 | -141.72893 | 39871 ft | 472 kts | 213° |
| 2026-04-24 12:44 | -3.49760 | -141.75839 | 39871 ft | 472 kts | 213° |
| 2026-04-24 12:44 | -3.55635 | -141.78787 | 39874 ft | 472 kts | 213° |
| 2026-04-24 12:45 | -3.61469 | -141.81715 | 39875 ft | 472 kts | 213° |
| 2026-04-24 12:45 | -3.67343 | -141.84663 | 39878 ft | 472 kts | 213° |
| 2026-04-24 12:46 | -3.73212 | -141.87610 | 39872 ft | 472 kts | 213° |
| 2026-04-24 12:46 | -3.79086 | -141.90559 | 39874 ft | 472 kts | 213° |
| 2026-04-24 12:47 | -3.84955 | -141.93507 | 39882 ft | 472 kts | 213° |
| 2026-04-24 12:47 | -3.90827 | -141.96456 | 39881 ft | 472 kts | 213° |
| 2026-04-24 12:48 | -3.96686 | -141.99398 | 39880 ft | 471 kts | 213° |
| 2026-04-24 12:48 | -4.02540 | -142.02339 | 39882 ft | 470 kts | 213° |
| 2026-04-24 12:49 | -4.08389 | -142.05279 | 39878 ft | 470 kts | 213° |
| 2026-04-24 12:49 | -4.14229 | -142.08214 | 39877 ft | 469 kts | 213° |
| 2026-04-24 12:50 | -4.20062 | -142.11146 | 39875 ft | 469 kts | 213° |
| 2026-04-24 12:50 | -4.25888 | -142.14073 | 39875 ft | 467 kts | 213° |
| 2026-04-24 12:51 | -4.31637 | -142.16963 | 39877 ft | 465 kts | 213° |
| 2026-04-24 12:51 | -4.37418 | -142.19872 | 39875 ft | 465 kts | 214° |
| 2026-04-24 12:52 | -4.43199 | -142.22781 | 39874 ft | 465 kts | 213° |
| 2026-04-24 12:52 | -4.48979 | -142.25689 | 39875 ft | 465 kts | 213° |
| 2026-04-24 12:53 | -4.54757 | -142.28597 | 39881 ft | 464 kts | 214° |
| 2026-04-24 12:53 | -4.60526 | -142.31499 | 39880 ft | 463 kts | 214° |
| 2026-04-24 12:54 | -4.66280 | -142.34396 | 39880 ft | 463 kts | 214° |
| 2026-04-24 12:54 | -4.72037 | -142.37295 | 39879 ft | 463 kts | 214° |
| 2026-04-24 12:55 | -4.77791 | -142.40193 | 39876 ft | 463 kts | 214° |
| 2026-04-24 12:55 | -4.83546 | -142.43091 | 39886 ft | 463 kts | 214° |
| 2026-04-24 12:56 | -4.89290 | -142.45984 | 39874 ft | 461 kts | 213° |
| 2026-04-24 12:56 | -4.95010 | -142.48865 | 39879 ft | 460 kts | 213° |
| 2026-04-24 12:57 | -5.00729 | -142.51750 | 39880 ft | 460 kts | 214° |
| 2026-04-24 12:57 | -5.06439 | -142.54633 | 39878 ft | 459 kts | 213° |
| 2026-04-24 12:58 | -5.12100 | -142.57489 | 39879 ft | 458 kts | 213° |
| 2026-04-24 12:58 | -5.17800 | -142.60367 | 39880 ft | 458 kts | 213° |
| 2026-04-24 12:59 | -5.23493 | -142.63243 | 39881 ft | 458 kts | 213° |
| 2026-04-24 12:59 | -5.29189 | -142.66120 | 39881 ft | 458 kts | 213° |
| 2026-04-24 13:00 | -5.34888 | -142.69000 | 39881 ft | 458 kts | 213° |
| 2026-04-24 13:00 | -5.40584 | -142.71878 | 39882 ft | 458 kts | 213° |
| 2026-04-24 13:01 | -5.46279 | -142.74757 | 39893 ft | 458 kts | 212° |
| 2026-04-24 13:01 | -5.51979 | -142.77640 | 39884 ft | 459 kts | 212° |
| 2026-04-24 13:02 | -5.57695 | -142.80531 | 39881 ft | 460 kts | 212° |
| 2026-04-24 13:02 | -5.63405 | -142.83418 | 39879 ft | 460 kts | 212° |
| 2026-04-24 13:03 | -5.69124 | -142.86311 | 39881 ft | 460 kts | 212° |
| 2026-04-24 13:03 | -5.74835 | -142.89201 | 39883 ft | 460 kts | 212° |
| 2026-04-24 13:04 | -5.80548 | -142.92093 | 39885 ft | 460 kts | 212° |
| 2026-04-24 13:04 | -5.86258 | -142.94984 | 39884 ft | 460 kts | 212° |
| 2026-04-24 13:05 | -5.91971 | -142.97876 | 39883 ft | 460 kts | 212° |
| 2026-04-24 13:05 | -5.97684 | -143.00770 | 39882 ft | 460 kts | 212° |
| 2026-04-24 13:06 | -6.03389 | -143.03661 | 39882 ft | 459 kts | 212° |
| 2026-04-24 13:06 | -6.09098 | -143.06554 | 39885 ft | 459 kts | 212° |
| 2026-04-24 13:07 | -6.14798 | -143.09443 | 39887 ft | 459 kts | 212° |
| 2026-04-24 13:07 | -6.20456 | -143.12311 | 39886 ft | 459 kts | 212° |
| 2026-04-24 13:08 | -6.26157 | -143.15202 | 39884 ft | 459 kts | 212° |
| 2026-04-24 13:08 | -6.31853 | -143.18092 | 39886 ft | 458 kts | 212° |
| 2026-04-24 13:09 | -6.40395 | -143.22426 | 39890 ft | 459 kts | 211° |
| 2026-04-24 13:09 | -6.46096 | -143.25320 | 39875 ft | 460 kts | 211° |
| 2026-04-24 13:10 | -6.51812 | -143.28221 | 39888 ft | 460 kts | 211° |
| 2026-04-24 13:10 | -6.57525 | -143.31122 | 39886 ft | 460 kts | 211° |
| 2026-04-24 13:11 | -6.63238 | -143.34024 | 39886 ft | 460 kts | 211° |
| 2026-04-24 13:11 | -6.68959 | -143.36931 | 39885 ft | 460 kts | 211° |
| 2026-04-24 13:12 | -6.74675 | -143.39836 | 39886 ft | 460 kts | 211° |
| 2026-04-24 13:12 | -6.80396 | -143.42745 | 39889 ft | 461 kts | 211° |
| 2026-04-24 13:13 | -6.86119 | -143.45654 | 39888 ft | 461 kts | 211° |
| 2026-04-24 13:13 | -6.91840 | -143.48564 | 39890 ft | 461 kts | 211° |
| 2026-04-24 13:14 | -6.97561 | -143.51475 | 39888 ft | 461 kts | 211° |
| 2026-04-24 13:14 | -7.03283 | -143.54387 | 39899 ft | 461 kts | 211° |
| 2026-04-24 13:15 | -7.08961 | -143.57277 | 39887 ft | 460 kts | 210° |
| 2026-04-24 13:15 | -7.14667 | -143.60182 | 39892 ft | 460 kts | 210° |
| 2026-04-24 13:16 | -7.20376 | -143.63090 | 39892 ft | 460 kts | 210° |
| 2026-04-24 13:16 | -7.26078 | -143.65995 | 39893 ft | 460 kts | 210° |
| 2026-04-24 13:17 | -7.31782 | -143.68902 | 39890 ft | 460 kts | 210° |
| 2026-04-24 13:17 | -7.37489 | -143.71812 | 39882 ft | 460 kts | 209° |
| 2026-04-24 13:18 | -7.43203 | -143.74726 | 39894 ft | 460 kts | 209° |
| 2026-04-24 13:18 | -7.48919 | -143.77641 | 39889 ft | 460 kts | 209° |
| 2026-04-24 13:19 | -7.54632 | -143.80556 | 39890 ft | 460 kts | 209° |
| 2026-04-24 13:19 | -7.60347 | -143.83473 | 39893 ft | 460 kts | 209° |
| 2026-04-24 13:20 | -7.66062 | -143.86390 | 39888 ft | 460 kts | 209° |
| 2026-04-24 13:20 | -7.71782 | -143.89312 | 39892 ft | 461 kts | 208° |
| 2026-04-24 13:21 | -7.77504 | -143.92235 | 39885 ft | 461 kts | 208° |
| 2026-04-24 13:21 | -7.83231 | -143.95161 | 39894 ft | 461 kts | 208° |
| 2026-04-24 13:22 | -7.88957 | -143.98088 | 39897 ft | 461 kts | 208° |
| 2026-04-24 13:22 | -7.94685 | -144.01017 | 39897 ft | 461 kts | 208° |
| 2026-04-24 13:23 | -8.00410 | -144.03946 | 39897 ft | 461 kts | 208° |
| 2026-04-24 13:23 | -8.06132 | -144.06873 | 39883 ft | 461 kts | 208° |
| 2026-04-24 13:24 | -8.11844 | -144.09796 | 39898 ft | 460 kts | 208° |
| 2026-04-24 13:24 | -8.17558 | -144.12722 | 39902 ft | 460 kts | 208° |
| 2026-04-24 13:25 | -8.22307 | -144.15153 | 39887 ft | 460 kts | 208° |
| 2026-04-24 13:25 | -8.28020 | -144.18080 | 39903 ft | 460 kts | 208° |
| 2026-04-24 13:26 | -8.34655 | -144.21481 | 39894 ft | 460 kts | 207° |
| 2026-04-24 13:26 | -8.39428 | -144.23927 | 39894 ft | 459 kts | 207° |
| 2026-04-24 13:27 | -8.45125 | -144.26849 | 39902 ft | 459 kts | 207° |
| 2026-04-24 13:27 | -8.50817 | -144.29768 | 39904 ft | 459 kts | 207° |
| 2026-04-24 13:28 | -8.56514 | -144.32691 | 39890 ft | 459 kts | 207° |
| 2026-04-24 13:28 | -8.62172 | -144.35595 | 39890 ft | 459 kts | 207° |
| 2026-04-24 13:29 | -8.67866 | -144.38519 | 39907 ft | 459 kts | 207° |
| 2026-04-24 13:29 | -8.73548 | -144.41438 | 39894 ft | 458 kts | 207° |
| 2026-04-24 13:30 | -8.79236 | -144.44360 | 39895 ft | 458 kts | 207° |
| 2026-04-24 13:30 | -8.84919 | -144.47281 | 39895 ft | 458 kts | 207° |
| 2026-04-24 13:31 | -8.90605 | -144.50205 | 39893 ft | 458 kts | 207° |
| 2026-04-24 13:31 | -8.96289 | -144.53129 | 39891 ft | 459 kts | 207° |
| 2026-04-24 13:32 | -9.01979 | -144.56056 | 39902 ft | 459 kts | 207° |
| 2026-04-24 13:32 | -9.07668 | -144.58985 | 39891 ft | 459 kts | 207° |
| 2026-04-24 13:33 | -9.13359 | -144.61914 | 39904 ft | 459 kts | 207° |
| 2026-04-24 13:33 | -9.19046 | -144.64844 | 39906 ft | 459 kts | 207° |
| 2026-04-24 13:34 | -9.24736 | -144.67776 | 39907 ft | 459 kts | 207° |
| 2026-04-24 13:34 | -9.30421 | -144.70706 | 39900 ft | 458 kts | 207° |
| 2026-04-24 13:35 | -9.36099 | -144.73634 | 39898 ft | 458 kts | 207° |
| 2026-04-24 13:35 | -9.41773 | -144.76561 | 39907 ft | 458 kts | 207° |
| 2026-04-24 13:36 | -9.47455 | -144.79493 | 39890 ft | 458 kts | 207° |
| 2026-04-24 13:36 | -9.53142 | -144.82429 | 39899 ft | 458 kts | 207° |
| 2026-04-24 13:37 | -9.58822 | -144.85362 | 39902 ft | 458 kts | 207° |
| 2026-04-24 13:37 | -9.64463 | -144.88277 | 39897 ft | 458 kts | 207° |
| 2026-04-24 13:38 | -9.70132 | -144.91206 | 39899 ft | 457 kts | 207° |
| 2026-04-24 13:38 | -9.75799 | -144.94136 | 39899 ft | 457 kts | 207° |
| 2026-04-24 13:39 | -9.81471 | -144.97070 | 39899 ft | 457 kts | 207° |
| 2026-04-24 13:39 | -9.87137 | -145.00002 | 39899 ft | 457 kts | 207° |
| 2026-04-24 13:40 | -9.92802 | -145.02934 | 39902 ft | 457 kts | 207° |
| 2026-04-24 13:40 | -9.98465 | -145.05867 | 39903 ft | 457 kts | 207° |
| 2026-04-24 13:41 | -10.04124 | -145.08797 | 39912 ft | 457 kts | 207° |
| 2026-04-24 13:41 | -10.09787 | -145.11718 | 39900 ft | 457 kts | 207° |
| 2026-04-24 13:42 | -10.15410 | -145.14619 | 39913 ft | 457 kts | 207° |
| 2026-04-24 13:42 | -10.20780 | -145.17393 | 39899 ft | 457 kts | 207° |
| 2026-04-24 13:43 | -10.26447 | -145.20322 | 39903 ft | 457 kts | 207° |
| 2026-04-24 13:43 | -10.32109 | -145.23250 | 39903 ft | 456 kts | 207° |
| 2026-04-24 13:44 | -10.37741 | -145.26164 | 39906 ft | 456 kts | 207° |
| 2026-04-24 13:44 | -10.43362 | -145.29073 | 39920 ft | 457 kts | 207° |
| 2026-04-24 13:45 | -10.49021 | -145.32003 | 39899 ft | 457 kts | 207° |
| 2026-04-24 13:45 | -10.54683 | -145.34936 | 39897 ft | 457 kts | 207° |
| 2026-04-24 13:46 | -10.60347 | -145.37871 | 39903 ft | 457 kts | 207° |
| 2026-04-24 13:46 | -10.66001 | -145.40802 | 39903 ft | 456 kts | 207° |
| 2026-04-24 13:47 | -10.71663 | -145.43738 | 39906 ft | 456 kts | 207° |
| 2026-04-24 13:47 | -10.77321 | -145.46674 | 39906 ft | 456 kts | 207° |
| 2026-04-24 13:48 | -10.82975 | -145.49609 | 39903 ft | 456 kts | 207° |
| 2026-04-24 13:48 | -10.88596 | -145.52528 | 39896 ft | 457 kts | 207° |
| 2026-04-24 13:49 | -10.94249 | -145.55465 | 39903 ft | 456 kts | 206° |
| 2026-04-24 13:49 | -10.99902 | -145.58403 | 39903 ft | 456 kts | 206° |
| 2026-04-24 13:50 | -11.05563 | -145.61346 | 39906 ft | 456 kts | 206° |
| 2026-04-24 13:50 | -11.11218 | -145.64287 | 39906 ft | 456 kts | 206° |
| 2026-04-24 13:51 | -11.16871 | -145.67230 | 39903 ft | 456 kts | 206° |
| 2026-04-24 13:51 | -11.22522 | -145.70172 | 39908 ft | 456 kts | 206° |
| 2026-04-24 13:52 | -11.28171 | -145.73115 | 39903 ft | 456 kts | 206° |
| 2026-04-24 13:52 | -11.33816 | -145.76056 | 39903 ft | 455 kts | 206° |
| 2026-04-24 13:53 | -11.39457 | -145.78997 | 39897 ft | 455 kts | 206° |
| 2026-04-24 13:53 | -11.45097 | -145.81938 | 39903 ft | 455 kts | 206° |
| 2026-04-24 13:54 | -11.50735 | -145.84880 | 39903 ft | 455 kts | 206° |
| 2026-04-24 13:54 | -11.56374 | -145.87824 | 39905 ft | 455 kts | 206° |
| 2026-04-24 13:55 | -11.62002 | -145.90763 | 39903 ft | 454 kts | 206° |
| 2026-04-24 13:55 | -11.67629 | -145.93703 | 39903 ft | 454 kts | 206° |
| 2026-04-24 13:56 | -11.73255 | -145.96644 | 39903 ft | 454 kts | 206° |
| 2026-04-24 13:56 | -11.78881 | -145.99587 | 39903 ft | 454 kts | 206° |
| 2026-04-24 13:57 | -11.84503 | -146.02528 | 39903 ft | 454 kts | 206° |
| 2026-04-24 13:57 | -11.90129 | -146.05473 | 39908 ft | 454 kts | 206° |
| 2026-04-24 13:58 | -11.95749 | -146.08417 | 39906 ft | 454 kts | 206° |
| 2026-04-24 13:58 | -12.01330 | -146.11341 | 39905 ft | 454 kts | 206° |
| 2026-04-24 13:59 | -12.06946 | -146.14285 | 39906 ft | 454 kts | 206° |
| 2026-04-24 13:59 | -12.12565 | -146.17232 | 39905 ft | 454 kts | 206° |
| 2026-04-24 14:00 | -12.18145 | -146.20160 | 39905 ft | 454 kts | 206° |
| 2026-04-24 14:00 | -12.23762 | -146.23109 | 39905 ft | 454 kts | 206° |
| 2026-04-24 14:01 | -12.29369 | -146.26054 | 39906 ft | 454 kts | 206° |
| 2026-04-24 14:01 | -12.34987 | -146.29006 | 39905 ft | 454 kts | 206° |
| 2026-04-24 14:02 | -12.40606 | -146.31960 | 39903 ft | 454 kts | 206° |
| 2026-04-24 14:02 | -12.46223 | -146.34914 | 39905 ft | 454 kts | 206° |
| 2026-04-24 14:03 | -12.51839 | -146.37870 | 39917 ft | 454 kts | 206° |
| 2026-04-24 14:03 | -12.57455 | -146.40826 | 39905 ft | 454 kts | 206° |
| 2026-04-24 14:04 | -12.63073 | -146.43786 | 39902 ft | 454 kts | 206° |
| 2026-04-24 14:04 | -12.68689 | -146.46745 | 39902 ft | 454 kts | 206° |
| 2026-04-24 14:05 | -12.74302 | -146.49705 | 39903 ft | 454 kts | 206° |
| 2026-04-24 14:05 | -12.79918 | -146.52668 | 39903 ft | 454 kts | 206° |
| 2026-04-24 14:06 | -12.85535 | -146.55633 | 39910 ft | 454 kts | 206° |
| 2026-04-24 14:06 | -12.91110 | -146.58577 | 39902 ft | 454 kts | 206° |
| 2026-04-24 14:07 | -12.96758 | -146.61561 | 39904 ft | 454 kts | 206° |
| 2026-04-24 14:07 | -13.02329 | -146.64506 | 39900 ft | 454 kts | 206° |
| 2026-04-24 14:08 | -13.07938 | -146.67473 | 39898 ft | 454 kts | 206° |
| 2026-04-24 14:08 | -13.13541 | -146.70438 | 39898 ft | 454 kts | 206° |
| 2026-04-24 14:09 | -13.19153 | -146.73409 | 39900 ft | 454 kts | 206° |
| 2026-04-24 14:09 | -13.24762 | -146.76380 | 39902 ft | 453 kts | 206° |
| 2026-04-24 14:10 | -13.30368 | -146.79351 | 39900 ft | 453 kts | 206° |
| 2026-04-24 14:10 | -13.35971 | -146.82322 | 39901 ft | 453 kts | 206° |
| 2026-04-24 14:11 | -13.41574 | -146.85295 | 39895 ft | 453 kts | 206° |
| 2026-04-24 14:12 | -13.49976 | -146.89755 | 39900 ft | 453 kts | 206° |
| 2026-04-24 14:12 | -13.55574 | -146.92730 | 39900 ft | 453 kts | 206° |
| 2026-04-24 14:13 | -13.61171 | -146.95705 | 39900 ft | 453 kts | 206° |
| 2026-04-24 14:13 | -13.65822 | -146.98178 | 39900 ft | 453 kts | 206° |
| 2026-04-24 14:14 | -13.71414 | -147.01153 | 39902 ft | 453 kts | 206° |
| 2026-04-24 14:14 | -13.79803 | -147.05620 | 39900 ft | 453 kts | 206° |
| 2026-04-24 14:15 | -13.85394 | -147.08599 | 39904 ft | 452 kts | 206° |
| 2026-04-24 14:15 | -13.90981 | -147.11577 | 39901 ft | 452 kts | 206° |
| 2026-04-24 14:16 | -13.96562 | -147.14553 | 39902 ft | 452 kts | 206° |
| 2026-04-24 14:17 | -14.04936 | -147.19023 | 39900 ft | 452 kts | 206° |
| 2026-04-24 14:17 | -14.13306 | -147.23494 | 39902 ft | 452 kts | 206° |
| 2026-04-24 14:18 | -14.18888 | -147.26478 | 39904 ft | 452 kts | 206° |
| 2026-04-24 14:18 | -14.24468 | -147.29462 | 39903 ft | 452 kts | 206° |
| 2026-04-24 14:19 | -14.30040 | -147.32444 | 39900 ft | 452 kts | 206° |
| 2026-04-24 14:19 | -14.35619 | -147.35431 | 39900 ft | 452 kts | 206° |
| 2026-04-24 14:20 | -14.41197 | -147.38419 | 39899 ft | 452 kts | 206° |
| 2026-04-24 14:20 | -14.46734 | -147.41388 | 39903 ft | 452 kts | 206° |
| 2026-04-24 14:21 | -14.52313 | -147.44380 | 39903 ft | 452 kts | 206° |
| 2026-04-24 14:21 | -14.57887 | -147.47372 | 39903 ft | 451 kts | 206° |
| 2026-04-24 14:22 | -14.63459 | -147.50363 | 39903 ft | 451 kts | 206° |
| 2026-04-24 14:23 | -14.71814 | -147.54853 | 39904 ft | 451 kts | 206° |
| 2026-04-24 14:23 | -14.77388 | -147.57851 | 39903 ft | 452 kts | 206° |
| 2026-04-24 14:24 | -14.82959 | -147.60849 | 39901 ft | 452 kts | 206° |
| 2026-04-24 14:24 | -14.88531 | -147.63848 | 39903 ft | 452 kts | 206° |
| 2026-04-24 14:25 | -14.94085 | -147.66890 | 39900 ft | 453 kts | 209° |
| 2026-04-24 14:25 | -14.99300 | -147.70575 | 39903 ft | 454 kts | 213° |
| 2026-04-24 14:26 | -15.04402 | -147.74436 | 39908 ft | 455 kts | 214° |
| 2026-04-24 14:26 | -15.09487 | -147.78332 | 39905 ft | 455 kts | 214° |
| 2026-04-24 14:27 | -15.14574 | -147.82223 | 39901 ft | 455 kts | 214° |
| 2026-04-24 14:27 | -15.19671 | -147.86112 | 39906 ft | 455 kts | 213° |
| 2026-04-24 14:28 | -15.24761 | -147.89996 | 39905 ft | 454 kts | 213° |
| 2026-04-24 14:28 | -15.29814 | -147.93852 | 39906 ft | 454 kts | 213° |
| 2026-04-24 14:29 | -15.34908 | -147.97743 | 39911 ft | 455 kts | 213° |
| 2026-04-24 14:29 | -15.39997 | -148.01633 | 39911 ft | 455 kts | 213° |
| 2026-04-24 14:30 | -15.44262 | -148.04894 | 39910 ft | 455 kts | 213° |
| 2026-04-24 14:30 | -15.50211 | -148.09447 | 39911 ft | 455 kts | 213° |
| 2026-04-24 14:31 | -15.55264 | -148.13317 | 39911 ft | 455 kts | 213° |
| 2026-04-24 14:31 | -15.60349 | -148.17213 | 39911 ft | 455 kts | 214° |
| 2026-04-24 14:32 | -15.65439 | -148.21116 | 39914 ft | 455 kts | 213° |
| 2026-04-24 14:32 | -15.70528 | -148.25021 | 39905 ft | 455 kts | 213° |
| 2026-04-24 14:33 | -15.75316 | -148.28696 | 39906 ft | 455 kts | 213° |
| 2026-04-24 14:33 | -15.80408 | -148.32608 | 39920 ft | 455 kts | 213° |
| 2026-04-24 14:34 | -15.85497 | -148.36520 | 39592 ft | 455 kts | 213° |
| 2026-04-24 14:34 | -15.88037 | -148.38475 | 39357 ft | 455 kts | 213° |
| 2026-04-24 14:34 | -15.90664 | -148.40287 | 39119 ft | 452 kts | 205° |
| 2026-04-24 14:34 | -15.93497 | -148.41654 | 38868 ft | 447 kts | 200° |
| 2026-04-24 14:35 | -15.96364 | -148.42886 | 38281 ft | 445 kts | 199° |
| 2026-04-24 14:35 | -15.99229 | -148.44087 | 37604 ft | 443 kts | 199° |
| 2026-04-24 14:35 | -16.02085 | -148.45277 | 36954 ft | 442 kts | 199° |
| 2026-04-24 14:35 | -16.04938 | -148.46463 | 36294 ft | 441 kts | 199° |
| 2026-04-24 14:36 | -16.07791 | -148.47649 | 35615 ft | 441 kts | 199° |
| 2026-04-24 14:36 | -16.10638 | -148.48831 | 34914 ft | 442 kts | 199° |
| 2026-04-24 14:36 | -16.13506 | -148.50022 | 34130 ft | 445 kts | 199° |
| 2026-04-24 14:36 | -16.16394 | -148.51221 | 33262 ft | 449 kts | 200° |
| 2026-04-24 14:37 | -16.19300 | -148.52428 | 32416 ft | 451 kts | 200° |
| 2026-04-24 14:37 | -16.22219 | -148.53641 | 31578 ft | 453 kts | 200° |
| 2026-04-24 14:37 | -16.25156 | -148.54863 | 30802 ft | 455 kts | 201° |
| 2026-04-24 14:37 | -16.28087 | -148.56082 | 30251 ft | 452 kts | 201° |
| 2026-04-24 14:38 | -16.31000 | -148.57295 | 29612 ft | 450 kts | 201° |
| 2026-04-24 14:38 | -16.33855 | -148.58484 | 28995 ft | 446 kts | 201° |
| 2026-04-24 14:38 | -16.36759 | -148.59694 | 28399 ft | 442 kts | 201° |
| 2026-04-24 14:38 | -16.39571 | -148.60865 | 27824 ft | 439 kts | 201° |
| 2026-04-24 14:39 | -16.42432 | -148.62057 | 27230 ft | 435 kts | 201° |
| 2026-04-24 14:39 | -16.45195 | -148.63209 | 26671 ft | 432 kts | 201° |
| 2026-04-24 14:39 | -16.47978 | -148.64369 | 26096 ft | 429 kts | 201° |
| 2026-04-24 14:39 | -16.50743 | -148.65522 | 25511 ft | 427 kts | 201° |
| 2026-04-24 14:40 | -16.53525 | -148.66683 | 24937 ft | 424 kts | 201° |
| 2026-04-24 14:40 | -16.56223 | -148.67809 | 24386 ft | 422 kts | 201° |
| 2026-04-24 14:40 | -16.58943 | -148.68944 | 23815 ft | 420 kts | 201° |
| 2026-04-24 14:40 | -16.61650 | -148.70074 | 23188 ft | 418 kts | 201° |
| 2026-04-24 14:41 | -16.64342 | -148.71199 | 22563 ft | 415 kts | 201° |
| 2026-04-24 14:41 | -16.67014 | -148.72315 | 21982 ft | 411 kts | 201° |
| 2026-04-24 14:41 | -16.69659 | -148.73420 | 21399 ft | 408 kts | 201° |
| 2026-04-24 14:41 | -16.72284 | -148.74517 | 20820 ft | 405 kts | 201° |
| 2026-04-24 14:42 | -16.74044 | -148.75253 | 20422 ft | 403 kts | 201° |
| 2026-04-24 14:42 | -16.77399 | -148.76657 | 19659 ft | 400 kts | 201° |
| 2026-04-24 14:42 | -16.79977 | -148.77735 | 19069 ft | 398 kts | 201° |
| 2026-04-24 14:42 | -16.82546 | -148.78810 | 18472 ft | 397 kts | 201° |
| 2026-04-24 14:43 | -16.85107 | -148.79882 | 17841 ft | 396 kts | 201° |
| 2026-04-24 14:43 | -16.87655 | -148.80949 | 17213 ft | 393 kts | 201° |
| 2026-04-24 14:43 | -16.90181 | -148.82008 | 16615 ft | 390 kts | 201° |
| 2026-04-24 14:43 | -16.92690 | -148.83059 | 16024 ft | 387 kts | 201° |
| 2026-04-24 14:44 | -16.95178 | -148.84102 | 15435 ft | 384 kts | 201° |
| 2026-04-24 14:44 | -16.97650 | -148.85139 | 14843 ft | 382 kts | 201° |
| 2026-04-24 14:44 | -17.00110 | -148.86170 | 14259 ft | 380 kts | 201° |
| 2026-04-24 14:44 | -17.02556 | -148.87196 | 13674 ft | 378 kts | 201° |
| 2026-04-24 14:45 | -17.04968 | -148.88267 | 13019 ft | 375 kts | 206° |
| 2026-04-24 14:45 | -17.07087 | -148.89830 | 12341 ft | 375 kts | 225° |
| 2026-04-24 14:45 | -17.08726 | -148.91933 | 11742 ft | 372 kts | 233° |
| 2026-04-24 14:45 | -17.10212 | -148.94132 | 11152 ft | 368 kts | 234° |
| 2026-04-24 14:46 | -17.11656 | -148.96291 | 10904 ft | 354 kts | 234° |
| 2026-04-24 14:46 | -17.13039 | -148.98351 | 10807 ft | 337 kts | 234° |
| 2026-04-24 14:46 | -17.14356 | -149.00306 | 10700 ft | 321 kts | 234° |
| 2026-04-24 14:46 | -17.15614 | -149.02171 | 10581 ft | 307 kts | 234° |
| 2026-04-24 14:47 | -17.16417 | -149.03361 | 10492 ft | 298 kts | 234° |
| 2026-04-24 14:47 | -17.17956 | -149.05635 | 10280 ft | 284 kts | 234° |
| 2026-04-24 14:47 | -17.19093 | -149.07314 | 9910 ft | 282 kts | 234° |
| 2026-04-24 14:47 | -17.20240 | -149.09007 | 9539 ft | 284 kts | 234° |
| 2026-04-24 14:48 | -17.21373 | -149.10681 | 9175 ft | 286 kts | 234° |
| 2026-04-24 14:48 | -17.22524 | -149.12382 | 8825 ft | 286 kts | 234° |
| 2026-04-24 14:48 | -17.23663 | -149.14067 | 8535 ft | 284 kts | 234° |
| 2026-04-24 14:48 | -17.24804 | -149.15753 | 8244 ft | 285 kts | 234° |
| 2026-04-24 14:49 | -17.25947 | -149.17442 | 7910 ft | 284 kts | 234° |
| 2026-04-24 14:49 | -17.27086 | -149.19128 | 7569 ft | 283 kts | 233° |
| 2026-04-24 14:49 | -17.28220 | -149.20806 | 7228 ft | 282 kts | 234° |
| 2026-04-24 14:49 | -17.29353 | -149.22482 | 6889 ft | 282 kts | 233° |
| 2026-04-24 14:50 | -17.30484 | -149.24156 | 6536 ft | 282 kts | 233° |
| 2026-04-24 14:50 | -17.31616 | -149.25832 | 6197 ft | 282 kts | 233° |
| 2026-04-24 14:50 | -17.32749 | -149.27508 | 5837 ft | 281 kts | 233° |
| 2026-04-24 14:50 | -17.33876 | -149.29177 | 5495 ft | 280 kts | 233° |
| 2026-04-24 14:51 | -17.34998 | -149.30839 | 5162 ft | 279 kts | 233° |
| 2026-04-24 14:51 | -17.36111 | -149.32491 | 4845 ft | 276 kts | 234° |
| 2026-04-24 14:51 | -17.37212 | -149.34129 | 4470 ft | 274 kts | 234° |
| 2026-04-24 14:51 | -17.38292 | -149.35736 | 4263 ft | 264 kts | 233° |
| 2026-04-24 14:52 | -17.39328 | -149.37276 | 4120 ft | 253 kts | 234° |
| 2026-04-24 14:52 | -17.40316 | -149.38746 | 3975 ft | 241 kts | 234° |
| 2026-04-24 14:52 | -17.41259 | -149.40151 | 3851 ft | 231 kts | 233° |
| 2026-04-24 14:52 | -17.42164 | -149.41498 | 3711 ft | 222 kts | 233° |
| 2026-04-24 14:53 | -17.43041 | -149.42802 | 3501 ft | 217 kts | 233° |
| 2026-04-24 14:53 | -17.43907 | -149.44075 | 3253 ft | 213 kts | 233° |
| 2026-04-24 14:53 | -17.44764 | -149.45318 | 3030 ft | 205 kts | 232° |
| 2026-04-24 14:53 | -17.45591 | -149.46466 | 3019 ft | 193 kts | 233° |
| 2026-04-24 14:54 | -17.46371 | -149.47606 | 2934 ft | 192 kts | 233° |
| 2026-04-24 14:54 | -17.47147 | -149.48738 | 2665 ft | 191 kts | 232° |
| 2026-04-24 14:54 | -17.47925 | -149.49866 | 2381 ft | 190 kts | 233° |
| 2026-04-24 14:54 | -17.48694 | -149.50989 | 2087 ft | 189 kts | 233° |
| 2026-04-24 14:55 | -17.49202 | -149.51731 | 1921 ft | 189 kts | 233° |
| 2026-04-24 14:55 | -17.50219 | -149.53213 | 1568 ft | 189 kts | 232° |
| 2026-04-24 14:55 | -17.50987 | -149.54332 | 1300 ft | 189 kts | 232° |
| 2026-04-24 14:55 | -17.51745 | -149.55438 | 1036 ft | 184 kts | 232° |
| 2026-04-24 14:56 | -17.52467 | -149.56491 | 793 ft | 173 kts | 233° |
| 2026-04-24 14:56 | -17.53150 | -149.57485 | 555 ft | 163 kts | 233° |
| 2026-04-24 14:56 | -17.53791 | -149.58425 | 310 ft | 154 kts | 233° |
| 2026-04-24 14:56 | -17.54391 | -149.59309 | 104 ft | 144 kts | 233° |
| 2026-04-24 14:57 | -17.54960 | -149.60127 | 30 ft | 129 kts | 234° |
| 2026-04-24 14:57 | -17.55377 | -149.60732 | 28 ft | 76 kts | 234° |
| 2026-04-24 14:57 | -17.55581 | -149.61028 | 27 ft | 27 kts | 234° |
| 2026-04-24 14:57 | -17.55649 | -149.61118 | 26 ft | 12 kts | 217° |
| 2026-04-24 14:58 | -17.55701 | -149.61116 | 27 ft | 7 kts | 158° |
| 2026-04-24 14:58 | -17.55743 | -149.61086 | 27 ft | 8 kts | 143° |
| 2026-04-24 14:58 | -17.55787 | -149.61056 | 28 ft | 6 kts | 147° |
| 2026-04-24 14:58 | -17.55826 | -149.61027 | 28 ft | 8 kts | 144° |
| 2026-04-24 14:59 | -17.55842 | -149.61015 | 28 ft | 0 kts | 144° |
| 2026-04-24 14:59 | -17.55843 | -149.61015 | 28 ft | 1 kts | 144° |
| 2026-04-24 14:59 | -17.55850 | -149.61009 | 28 ft | 0 kts | 144° |